Time,TemperatureF,DewpointF,PressureIn,WindDirection,WindDirectionDegrees,WindSpeedMPH,WindSpeedGustMPH,Humidity,HourlyPrecipIn,Conditions,Clouds,dailyrainin,SoftwareType,DateUTC
2013-07-19 00:00:00,82.8,69.3,29.95,SW,225,3.6,4.0,64,0.00,,,0.00,VWS V14.00,2013-07-19 04:00:00,
2013-07-19 00:01:00,82.8,69.3,29.96,SSW,200,3.1,3.1,64,0.00,,,0.00,VWS V14.00,2013-07-19 04:01:00,
2013-07-19 00:02:00,82.8,69.3,29.96,SSW,202,3.6,3.6,64,0.00,,,0.00,VWS V14.00,2013-07-19 04:02:00,
2013-07-19 00:03:00,82.6,69.2,29.96,SSW,204,3.6,3.6,64,0.00,,,0.00,VWS V14.00,2013-07-19 04:03:00,
2013-07-19 00:04:00,82.8,69.3,29.95,SSW,202,3.6,3.6,64,0.00,,,0.00,VWS V14.00,2013-07-19 04:04:00,
2013-07-19 00:05:00,82.6,69.2,29.95,SSW,204,3.6,3.6,64,0.00,,,0.00,VWS V14.00,2013-07-19 04:05:00,
2013-07-19 00:06:00,82.6,69.2,29.95,SW,231,3.6,4.0,64,0.00,,,0.00,VWS V14.00,2013-07-19 04:06:00,
2013-07-19 00:07:00,82.6,69.2,29.95,WSW,240,2.2,3.6,64,0.00,,,0.00,VWS V14.00,2013-07-19 04:07:00,
2013-07-19 00:08:00,82.6,69.6,29.96,SW,221,5.4,5.4,65,0.00,,,0.00,VWS V14.00,2013-07-19 04:08:00,
2013-07-19 00:09:00,82.6,69.6,29.96,SSW,208,2.7,5.4,65,0.00,,,0.00,VWS V14.00,2013-07-19 04:09:00,
2013-07-19 00:10:00,82.6,69.6,29.95,SW,221,5.4,5.4,65,0.00,,,0.00,VWS V14.00,2013-07-19 04:10:00,
2013-07-19 00:11:00,82.6,69.6,29.96,SSW,211,4.9,6.3,65,0.00,,,0.00,VWS V14.00,2013-07-19 04:11:00,
2013-07-19 00:12:00,82.6,69.6,29.95,SSW,210,3.6,3.6,65,0.00,,,0.00,VWS V14.00,2013-07-19 04:12:00,
2013-07-19 00:13:00,82.6,69.6,29.95,SSW,211,4.9,6.3,65,0.00,,,0.00,VWS V14.00,2013-07-19 04:13:00,
2013-07-19 00:14:00,82.6,69.6,29.95,SW,216,4.0,4.9,65,0.00,,,0.00,VWS V14.00,2013-07-19 04:14:00,
2013-07-19 00:15:00,82.6,69.6,29.95,SW,215,2.7,4.0,65,0.00,,,0.00,VWS V14.00,2013-07-19 04:15:00,
2013-07-19 00:16:00,82.6,69.6,29.95,SW,220,3.1,4.0,65,0.00,,,0.00,VWS V14.00,2013-07-19 04:16:00,
2013-07-19 00:17:00,82.6,69.6,29.96,SW,236,2.7,2.7,65,0.00,,,0.00,VWS V14.00,2013-07-19 04:17:00,
2013-07-19 00:18:00,82.6,69.6,29.95,SW,236,2.7,2.7,65,0.00,,,0.00,VWS V14.00,2013-07-19 04:18:00,
2013-07-19 00:19:00,82.6,69.6,29.95,SW,236,2.7,2.7,65,0.00,,,0.00,VWS V14.00,2013-07-19 04:19:00,
2013-07-19 00:20:00,82.4,69.9,29.95,SW,218,0.0,2.7,66,0.00,,,0.00,VWS V14.00,2013-07-19 04:20:00,
2013-07-19 00:21:00,82.4,69.9,29.95,SW,217,2.7,2.7,66,0.00,,,0.00,VWS V14.00,2013-07-19 04:21:00,
2013-07-19 00:22:00,82.4,69.9,29.96,SW,225,3.6,3.6,66,0.00,,,0.00,VWS V14.00,2013-07-19 04:22:00,
2013-07-19 00:23:00,82.4,69.9,29.95,SW,215,5.4,5.8,66,0.00,,,0.00,VWS V14.00,2013-07-19 04:23:00,
2013-07-19 00:24:00,82.4,69.9,29.95,SW,225,3.6,5.4,66,0.00,,,0.00,VWS V14.00,2013-07-19 04:24:00,
2013-07-19 00:25:00,82.4,69.9,29.95,SW,225,3.6,3.6,66,0.00,,,0.00,VWS V14.00,2013-07-19 04:25:00,
2013-07-19 00:26:00,82.4,69.9,29.95,SW,225,4.0,4.0,66,0.00,,,0.00,VWS V14.00,2013-07-19 04:26:00,
2013-07-19 00:27:00,82.4,69.9,29.95,SW,225,4.0,4.0,66,0.00,,,0.00,VWS V14.00,2013-07-19 04:27:00,
2013-07-19 00:28:00,82.4,69.9,29.96,SSW,208,2.7,2.7,66,0.00,,,0.00,VWS V14.00,2013-07-19 04:28:00,
2013-07-19 00:29:00,82.4,69.9,29.95,SSW,208,2.7,3.6,66,0.00,,,0.00,VWS V14.00,2013-07-19 04:29:00,
2013-07-19 00:30:00,82.4,69.9,29.95,SSW,208,2.7,2.7,66,0.00,,,0.00,VWS V14.00,2013-07-19 04:30:00,
2013-07-19 00:31:00,82.4,69.9,29.95,SSW,208,2.7,2.7,66,0.00,,,0.00,VWS V14.00,2013-07-19 04:31:00,
2013-07-19 00:32:00,82.2,70.2,29.95,SSW,208,4.0,4.0,67,0.00,,,0.00,VWS V14.00,2013-07-19 04:32:00,
2013-07-19 00:33:00,82.2,70.2,29.93,SSW,208,4.0,4.0,67,0.00,,,0.00,VWS V14.00,2013-07-19 04:33:00,
2013-07-19 00:34:00,82.2,70.2,29.93,SSW,207,2.7,3.1,67,0.00,,,0.00,VWS V14.00,2013-07-19 04:34:00,
2013-07-19 00:35:00,82.2,70.2,29.93,South,189,2.7,2.7,67,0.00,,,0.00,VWS V14.00,2013-07-19 04:35:00,
2013-07-19 00:36:00,82.2,70.2,29.93,SSW,207,2.7,3.1,67,0.00,,,0.00,VWS V14.00,2013-07-19 04:36:00,
2013-07-19 00:37:00,82.2,70.2,29.93,SSW,206,2.7,2.7,67,0.00,,,0.00,VWS V14.00,2013-07-19 04:37:00,
2013-07-19 00:38:00,82.2,70.2,29.93,SW,222,4.0,4.0,67,0.00,,,0.00,VWS V14.00,2013-07-19 04:38:00,
2013-07-19 00:39:00,82.2,70.6,29.93,SSW,212,2.7,4.0,68,0.00,,,0.00,VWS V14.00,2013-07-19 04:39:00,
2013-07-19 00:40:00,82.2,70.6,29.93,SSW,212,4.0,4.0,68,0.00,,,0.00,VWS V14.00,2013-07-19 04:40:00,
2013-07-19 00:41:00,82.2,70.6,29.93,SSW,212,2.7,4.0,68,0.00,,,0.00,VWS V14.00,2013-07-19 04:41:00,
2013-07-19 00:42:00,82.0,70.4,29.93,SSW,212,2.7,3.6,68,0.00,,,0.00,VWS V14.00,2013-07-19 04:42:00,
2013-07-19 00:43:00,82.0,70.4,29.93,SSW,212,2.7,2.7,68,0.00,,,0.00,VWS V14.00,2013-07-19 04:43:00,
2013-07-19 00:44:00,82.0,70.4,29.93,SSW,208,2.7,2.7,68,0.00,,,0.00,VWS V14.00,2013-07-19 04:44:00,
2013-07-19 00:45:00,82.0,70.4,29.93,SSW,205,5.4,5.4,68,0.00,,,0.00,VWS V14.00,2013-07-19 04:45:00,
2013-07-19 00:46:00,82.0,70.4,29.93,SSW,205,5.4,5.4,68,0.00,,,0.00,VWS V14.00,2013-07-19 04:46:00,
2013-07-19 00:47:00,82.0,70.4,29.93,SSW,205,5.4,5.4,68,0.00,,,0.00,VWS V14.00,2013-07-19 04:47:00,
2013-07-19 00:48:00,82.0,70.4,29.93,SW,221,3.1,5.4,68,0.00,,,0.00,VWS V14.00,2013-07-19 04:48:00,
2013-07-19 00:49:00,82.0,70.4,29.93,SSW,198,2.7,3.1,68,0.00,,,0.00,VWS V14.00,2013-07-19 04:49:00,
2013-07-19 00:50:00,82.0,70.4,29.93,South,189,2.2,3.6,68,0.00,,,0.00,VWS V14.00,2013-07-19 04:50:00,
2013-07-19 00:51:00,82.0,70.4,29.93,South,189,3.6,3.6,68,0.00,,,0.00,VWS V14.00,2013-07-19 04:51:00,
2013-07-19 00:52:00,82.0,70.4,29.93,South,189,2.2,3.6,68,0.00,,,0.00,VWS V14.00,2013-07-19 04:52:00,
2013-07-19 00:53:00,82.0,70.4,29.93,South,190,0.0,2.2,68,0.00,,,0.00,VWS V14.00,2013-07-19 04:53:00,
2013-07-19 00:54:00,82.0,70.4,29.93,SSW,211,2.2,2.2,68,0.00,,,0.00,VWS V14.00,2013-07-19 04:54:00,
2013-07-19 00:55:00,81.9,70.3,29.93,SSW,212,2.7,2.7,68,0.00,,,0.00,VWS V14.00,2013-07-19 04:55:00,
2013-07-19 00:56:00,81.9,70.3,29.93,SSW,197,3.1,3.1,68,0.00,,,0.00,VWS V14.00,2013-07-19 04:56:00,
2013-07-19 00:57:00,81.9,70.3,29.93,SSW,198,2.7,2.7,68,0.00,,,0.00,VWS V14.00,2013-07-19 04:57:00,
2013-07-19 00:58:00,81.9,70.3,29.93,SSW,197,3.1,3.1,68,0.00,,,0.00,VWS V14.00,2013-07-19 04:58:00,
2013-07-19 00:59:00,81.9,70.7,29.93,South,183,3.1,3.6,69,0.00,,,0.00,VWS V14.00,2013-07-19 04:59:00,
2013-07-19 01:00:00,81.9,70.7,29.93,South,183,3.1,3.1,69,0.00,,,0.00,VWS V14.00,2013-07-19 05:00:00,
2013-07-19 01:01:00,81.9,70.7,29.93,South,184,2.7,3.1,69,0.00,,,0.00,VWS V14.00,2013-07-19 05:01:00,
2013-07-19 01:02:00,81.9,70.7,29.93,SSW,205,3.6,3.6,69,0.00,,,0.00,VWS V14.00,2013-07-19 05:02:00,
2013-07-19 01:03:00,81.9,70.7,29.93,South,187,2.2,2.7,69,0.00,,,0.00,VWS V14.00,2013-07-19 05:03:00,
2013-07-19 01:04:00,81.9,70.7,29.93,SSW,205,3.6,3.6,69,0.00,,,0.00,VWS V14.00,2013-07-19 05:04:00,
2013-07-19 01:05:00,81.7,70.5,29.93,SSW,207,3.1,3.6,69,0.00,,,0.00,VWS V14.00,2013-07-19 05:05:00,
2013-07-19 01:06:00,81.7,70.5,29.93,SSW,206,0.0,3.1,69,0.00,,,0.00,VWS V14.00,2013-07-19 05:06:00,
2013-07-19 01:07:00,81.7,70.5,29.93,SSW,207,3.1,4.0,69,0.00,,,0.00,VWS V14.00,2013-07-19 05:07:00,
2013-07-19 01:08:00,81.7,70.5,29.93,SSW,207,4.0,4.0,69,0.00,,,0.00,VWS V14.00,2013-07-19 05:08:00,
2013-07-19 01:09:00,81.7,70.5,29.93,SSW,207,3.1,4.0,69,0.00,,,0.00,VWS V14.00,2013-07-19 05:09:00,
2013-07-19 01:10:00,81.7,70.5,29.93,SSW,208,2.7,3.1,69,0.00,,,0.00,VWS V14.00,2013-07-19 05:10:00,
2013-07-19 01:11:00,81.7,70.5,29.93,SSW,208,2.7,2.7,69,0.00,,,0.00,VWS V14.00,2013-07-19 05:11:00,
2013-07-19 01:12:00,81.7,70.9,29.93,SW,230,5.8,5.8,70,0.00,,,0.00,VWS V14.00,2013-07-19 05:12:00,
2013-07-19 01:13:00,81.7,70.5,29.93,SW,236,4.0,4.0,69,0.00,,,0.00,VWS V14.00,2013-07-19 05:13:00,
2013-07-19 01:14:00,81.7,70.5,29.93,SSW,205,3.1,4.0,69,0.00,,,0.00,VWS V14.00,2013-07-19 05:14:00,
2013-07-19 01:15:00,81.7,70.9,29.93,SW,230,5.8,5.8,70,0.00,,,0.00,VWS V14.00,2013-07-19 05:15:00,
2013-07-19 01:16:00,81.5,70.8,29.93,SSW,207,3.6,5.8,70,0.00,,,0.00,VWS V14.00,2013-07-19 05:16:00,
2013-07-19 01:17:00,81.5,70.8,29.93,SSW,207,3.1,3.6,70,0.00,,,0.00,VWS V14.00,2013-07-19 05:17:00,
2013-07-19 01:18:00,81.5,70.8,29.93,SSW,212,2.7,2.7,70,0.00,,,0.00,VWS V14.00,2013-07-19 05:18:00,
2013-07-19 01:19:00,81.5,70.8,29.93,SSW,212,2.7,3.1,70,0.00,,,0.00,VWS V14.00,2013-07-19 05:19:00,
2013-07-19 01:20:00,81.5,70.8,29.93,SSW,212,2.7,2.7,70,0.00,,,0.00,VWS V14.00,2013-07-19 05:20:00,
2013-07-19 01:21:00,81.5,70.8,29.93,SSW,212,2.7,2.7,70,0.00,,,0.00,VWS V14.00,2013-07-19 05:21:00,
2013-07-19 01:22:00,81.5,70.8,29.93,SSW,212,3.1,5.8,70,0.00,,,0.00,VWS V14.00,2013-07-19 05:22:00,
2013-07-19 01:23:00,81.5,70.8,29.93,SW,219,3.6,3.6,70,0.00,,,0.00,VWS V14.00,2013-07-19 05:23:00,
2013-07-19 01:24:00,81.5,70.8,29.93,SW,219,3.6,4.0,70,0.00,,,0.00,VWS V14.00,2013-07-19 05:24:00,
2013-07-19 01:25:00,81.5,70.8,29.93,SW,219,3.6,3.6,70,0.00,,,0.00,VWS V14.00,2013-07-19 05:25:00,
2013-07-19 01:26:00,81.5,71.2,29.93,SW,224,5.4,5.4,71,0.00,,,0.00,VWS V14.00,2013-07-19 05:26:00,
2013-07-19 01:27:00,81.5,71.2,29.93,SSW,211,2.7,5.4,71,0.00,,,0.00,VWS V14.00,2013-07-19 05:27:00,
2013-07-19 01:28:00,81.3,71.0,29.93,SW,216,3.1,3.1,71,0.00,,,0.00,VWS V14.00,2013-07-19 05:28:00,
2013-07-19 01:29:00,81.5,71.2,29.93,SW,216,3.1,3.6,71,0.00,,,0.00,VWS V14.00,2013-07-19 05:29:00,
2013-07-19 01:30:00,81.3,71.0,29.93,SW,216,3.1,3.1,71,0.00,,,0.00,VWS V14.00,2013-07-19 05:30:00,
2013-07-19 01:31:00,81.3,71.0,29.93,SW,223,2.7,3.1,71,0.00,,,0.00,VWS V14.00,2013-07-19 05:31:00,
2013-07-19 01:32:00,81.3,71.0,29.93,SW,218,3.6,3.6,71,0.00,,,0.00,VWS V14.00,2013-07-19 05:32:00,
2013-07-19 01:33:00,81.3,71.0,29.93,SW,222,4.9,5.4,71,0.00,,,0.00,VWS V14.00,2013-07-19 05:33:00,
2013-07-19 01:34:00,81.3,71.0,29.93,SW,218,3.6,4.9,71,0.00,,,0.00,VWS V14.00,2013-07-19 05:34:00,
2013-07-19 01:35:00,81.3,71.0,29.93,SW,218,3.6,3.6,71,0.00,,,0.00,VWS V14.00,2013-07-19 05:35:00,
2013-07-19 01:36:00,81.3,71.0,29.93,SW,235,3.6,3.6,71,0.00,,,0.00,VWS V14.00,2013-07-19 05:36:00,
2013-07-19 01:37:00,81.3,71.0,29.93,SSW,210,4.9,4.9,71,0.00,,,0.00,VWS V14.00,2013-07-19 05:37:00,
2013-07-19 01:38:00,81.1,71.3,29.93,South,190,3.6,5.4,72,0.00,,,0.00,VWS V14.00,2013-07-19 05:38:00,
2013-07-19 01:39:00,81.1,70.8,29.93,SW,226,5.4,5.4,71,0.00,,,0.00,VWS V14.00,2013-07-19 05:39:00,
2013-07-19 01:40:00,81.1,71.3,29.93,South,190,3.6,5.4,72,0.00,,,0.00,VWS V14.00,2013-07-19 05:40:00,
2013-07-19 01:41:00,81.1,71.3,29.93,South,190,3.6,3.6,72,0.00,,,0.00,VWS V14.00,2013-07-19 05:41:00,
2013-07-19 01:42:00,81.1,71.3,29.93,SW,216,4.0,4.0,72,0.00,,,0.00,VWS V14.00,2013-07-19 05:42:00,
2013-07-19 01:43:00,81.1,71.3,29.93,SSW,213,3.1,3.1,72,0.00,,,0.00,VWS V14.00,2013-07-19 05:43:00,
2013-07-19 01:44:00,81.1,71.3,29.93,SSW,213,3.1,4.0,72,0.00,,,0.00,VWS V14.00,2013-07-19 05:44:00,
2013-07-19 01:45:00,81.1,71.3,29.93,SSW,213,3.1,3.1,72,0.00,,,0.00,VWS V14.00,2013-07-19 05:45:00,
2013-07-19 01:46:00,81.1,71.3,29.93,SSW,204,4.0,4.0,72,0.00,,,0.00,VWS V14.00,2013-07-19 05:46:00,
2013-07-19 01:47:00,81.1,71.3,29.93,SSW,204,4.0,4.0,72,0.00,,,0.00,VWS V14.00,2013-07-19 05:47:00,
2013-07-19 01:48:00,81.1,71.3,29.93,SW,215,3.1,3.1,72,0.00,,,0.00,VWS V14.00,2013-07-19 05:48:00,
2013-07-19 01:49:00,81.1,71.3,29.93,SSW,212,2.7,5.4,72,0.00,,,0.00,VWS V14.00,2013-07-19 05:49:00,
2013-07-19 01:50:00,81.1,71.3,29.93,SW,215,3.1,3.1,72,0.00,,,0.00,VWS V14.00,2013-07-19 05:50:00,
2013-07-19 01:51:00,81.1,71.3,29.93,SW,215,3.1,3.1,72,0.00,,,0.00,VWS V14.00,2013-07-19 05:51:00,
2013-07-19 01:52:00,81.1,71.3,29.93,SSW,210,3.1,3.1,72,0.00,,,0.00,VWS V14.00,2013-07-19 05:52:00,
2013-07-19 01:53:00,81.1,71.3,29.93,SW,220,4.9,4.9,72,0.00,,,0.00,VWS V14.00,2013-07-19 05:53:00,
2013-07-19 01:54:00,81.1,71.3,29.93,SW,215,4.9,4.9,72,0.00,,,0.00,VWS V14.00,2013-07-19 05:54:00,
2013-07-19 01:55:00,81.1,71.3,29.93,SW,216,4.0,4.0,72,0.00,,,0.00,VWS V14.00,2013-07-19 05:55:00,
2013-07-19 01:56:00,81.1,71.3,29.93,SW,215,4.9,4.9,72,0.00,,,0.00,VWS V14.00,2013-07-19 05:56:00,
2013-07-19 01:57:00,81.1,71.3,29.93,SW,215,4.9,4.9,72,0.00,,,0.00,VWS V14.00,2013-07-19 05:57:00,
2013-07-19 01:58:00,81.1,71.3,29.93,SW,215,4.9,4.9,72,0.00,,,0.00,VWS V14.00,2013-07-19 05:58:00,
2013-07-19 01:59:00,81.1,71.3,29.93,SW,221,3.6,3.6,72,0.00,,,0.00,VWS V14.00,2013-07-19 05:59:00,
2013-07-19 02:00:00,81.1,71.3,29.93,SW,221,3.6,3.6,72,0.00,,,0.00,VWS V14.00,2013-07-19 06:00:00,
2013-07-19 02:01:00,81.1,71.3,29.93,SW,221,3.6,3.6,72,0.00,,,0.00,VWS V14.00,2013-07-19 06:01:00,
2013-07-19 02:02:00,81.1,71.3,29.93,SSW,197,3.6,3.6,72,0.00,,,0.00,VWS V14.00,2013-07-19 06:02:00,
2013-07-19 02:03:00,81.1,71.3,29.93,SSW,210,3.1,3.6,72,0.00,,,0.00,VWS V14.00,2013-07-19 06:03:00,
2013-07-19 02:04:00,81.0,71.5,29.93,SSW,207,3.1,4.9,73,0.00,,,0.00,VWS V14.00,2013-07-19 06:04:00,
2013-07-19 02:05:00,81.1,71.3,29.93,South,169,4.9,4.9,72,0.00,,,0.00,VWS V14.00,2013-07-19 06:05:00,
2013-07-19 02:06:00,81.0,71.5,29.93,SSW,207,3.1,4.9,73,0.00,,,0.00,VWS V14.00,2013-07-19 06:06:00,
2013-07-19 02:07:00,81.0,71.5,29.93,SSW,203,5.4,5.4,73,0.00,,,0.00,VWS V14.00,2013-07-19 06:07:00,
2013-07-19 02:08:00,81.0,71.5,29.93,SSW,208,3.1,5.4,73,0.00,,,0.00,VWS V14.00,2013-07-19 06:08:00,
2013-07-19 02:09:00,81.0,71.5,29.93,SSW,208,3.1,3.1,73,0.00,,,0.00,VWS V14.00,2013-07-19 06:09:00,
2013-07-19 02:10:00,81.0,71.5,29.93,SW,222,7.6,7.6,73,0.00,,,0.00,VWS V14.00,2013-07-19 06:10:00,
2013-07-19 02:11:00,81.0,71.5,29.93,SW,218,2.7,2.7,73,0.00,,,0.00,VWS V14.00,2013-07-19 06:11:00,
2013-07-19 02:12:00,81.0,71.5,29.93,SW,222,7.6,7.6,73,0.00,,,0.00,VWS V14.00,2013-07-19 06:12:00,
2013-07-19 02:13:00,81.0,71.5,29.93,SW,216,4.0,7.6,73,0.00,,,0.00,VWS V14.00,2013-07-19 06:13:00,
2013-07-19 02:14:00,81.0,71.5,29.93,SW,215,3.1,4.0,73,0.00,,,0.00,VWS V14.00,2013-07-19 06:14:00,
2013-07-19 02:15:00,81.0,71.5,29.93,SW,215,3.1,3.1,73,0.00,,,0.00,VWS V14.00,2013-07-19 06:15:00,
2013-07-19 02:16:00,80.8,71.3,29.93,SW,222,3.6,5.8,73,0.00,,,0.00,VWS V14.00,2013-07-19 06:16:00,
2013-07-19 02:17:00,80.8,71.3,29.93,WSW,240,5.8,5.8,73,0.00,,,0.00,VWS V14.00,2013-07-19 06:17:00,
2013-07-19 02:18:00,80.8,71.3,29.93,SW,222,3.6,5.8,73,0.00,,,0.00,VWS V14.00,2013-07-19 06:18:00,
2013-07-19 02:19:00,80.8,71.3,29.90,SW,222,3.6,3.6,73,0.00,,,0.00,VWS V14.00,2013-07-19 06:19:00,
2013-07-19 02:20:00,80.8,71.7,29.90,SSW,212,5.8,5.8,74,0.00,,,0.00,VWS V14.00,2013-07-19 06:20:00,
2013-07-19 02:21:00,80.8,71.7,29.90,SSW,209,3.6,5.8,74,0.00,,,0.00,VWS V14.00,2013-07-19 06:21:00,
2013-07-19 02:22:00,80.8,71.7,29.90,SW,224,3.6,3.6,74,0.00,,,0.00,VWS V14.00,2013-07-19 06:22:00,
2013-07-19 02:23:00,80.8,71.7,29.90,SW,222,2.7,4.0,74,0.00,,,0.00,VWS V14.00,2013-07-19 06:23:00,
2013-07-19 02:24:00,80.8,71.7,29.90,SW,224,3.6,3.6,74,0.00,,,0.00,VWS V14.00,2013-07-19 06:24:00,
2013-07-19 02:25:00,80.8,71.7,29.90,SW,224,3.6,3.6,74,0.00,,,0.00,VWS V14.00,2013-07-19 06:25:00,
2013-07-19 02:26:00,80.8,71.7,29.90,SW,224,3.6,3.6,74,0.00,,,0.00,VWS V14.00,2013-07-19 06:26:00,
2013-07-19 02:27:00,80.8,71.7,29.90,SSW,197,2.7,6.3,74,0.00,,,0.00,VWS V14.00,2013-07-19 06:27:00,
2013-07-19 02:28:00,80.8,71.7,29.90,SSW,205,6.3,6.3,74,0.00,,,0.00,VWS V14.00,2013-07-19 06:28:00,
2013-07-19 02:29:00,80.8,71.7,29.90,SSW,197,2.7,6.3,74,0.00,,,0.00,VWS V14.00,2013-07-19 06:29:00,
2013-07-19 02:30:00,80.8,72.1,29.90,SW,227,4.9,4.9,75,0.00,,,0.00,VWS V14.00,2013-07-19 06:30:00,
2013-07-19 02:31:00,80.8,72.1,29.90,SW,227,4.9,4.9,75,0.00,,,0.00,VWS V14.00,2013-07-19 06:31:00,
2013-07-19 02:32:00,80.8,72.1,29.90,SSE,166,4.0,4.9,75,0.00,,,0.00,VWS V14.00,2013-07-19 06:32:00,
2013-07-19 02:33:00,80.8,72.1,29.90,SSW,204,4.0,4.0,75,0.00,,,0.00,VWS V14.00,2013-07-19 06:33:00,
2013-07-19 02:34:00,80.8,72.1,29.90,SW,229,4.0,4.0,75,0.00,,,0.00,VWS V14.00,2013-07-19 06:34:00,
2013-07-19 02:35:00,80.8,72.1,29.90,SSW,204,4.0,4.0,75,0.00,,,0.00,VWS V14.00,2013-07-19 06:35:00,
2013-07-19 02:36:00,80.8,72.1,29.90,SW,229,3.1,4.0,75,0.00,,,0.00,VWS V14.00,2013-07-19 06:36:00,
2013-07-19 02:37:00,80.8,72.1,29.90,SW,229,3.1,3.1,75,0.00,,,0.00,VWS V14.00,2013-07-19 06:37:00,
2013-07-19 02:38:00,80.8,72.1,29.90,WSW,247,2.7,3.1,75,0.00,,,0.00,VWS V14.00,2013-07-19 06:38:00,
2013-07-19 02:39:00,80.8,72.1,29.90,South,186,3.1,3.1,75,0.00,,,0.00,VWS V14.00,2013-07-19 06:39:00,
2013-07-19 02:40:00,80.8,72.1,29.90,WSW,247,2.7,3.1,75,0.00,,,0.00,VWS V14.00,2013-07-19 06:40:00,
2013-07-19 02:41:00,80.8,72.1,29.90,SSW,207,3.1,3.1,75,0.00,,,0.00,VWS V14.00,2013-07-19 06:41:00,
2013-07-19 02:42:00,80.8,72.1,29.90,SW,227,2.7,3.1,75,0.00,,,0.00,VWS V14.00,2013-07-19 06:42:00,
2013-07-19 02:43:00,80.6,72.3,29.90,SSW,213,3.1,3.1,76,0.00,,,0.00,VWS V14.00,2013-07-19 06:43:00,
2013-07-19 02:44:00,80.8,72.1,29.90,SW,227,2.7,2.7,75,0.00,,,0.00,VWS V14.00,2013-07-19 06:44:00,
2013-07-19 02:45:00,80.6,72.3,29.90,SSW,213,3.1,3.1,76,0.00,,,0.00,VWS V14.00,2013-07-19 06:45:00,
2013-07-19 02:46:00,80.6,72.3,29.90,SSW,213,3.1,3.1,76,0.00,,,0.00,VWS V14.00,2013-07-19 06:46:00,
2013-07-19 02:47:00,80.6,72.3,29.90,SSW,209,3.1,3.1,76,0.00,,,0.00,VWS V14.00,2013-07-19 06:47:00,
2013-07-19 02:48:00,80.6,72.3,29.90,SW,224,3.1,3.6,76,0.00,,,0.00,VWS V14.00,2013-07-19 06:48:00,
2013-07-19 02:49:00,80.6,72.3,29.90,SSW,205,2.7,3.1,76,0.00,,,0.00,VWS V14.00,2013-07-19 06:49:00,
2013-07-19 02:50:00,80.6,72.3,29.90,SSW,200,3.1,3.1,76,0.00,,,0.00,VWS V14.00,2013-07-19 06:50:00,
2013-07-19 02:51:00,80.6,72.3,29.90,SSW,205,2.7,3.1,76,0.00,,,0.00,VWS V14.00,2013-07-19 06:51:00,
2013-07-19 02:52:00,80.6,72.3,29.90,SSW,205,2.2,2.7,76,0.00,,,0.00,VWS V14.00,2013-07-19 06:52:00,
2013-07-19 02:53:00,80.6,72.3,29.90,SSW,205,2.2,2.2,76,0.00,,,0.00,VWS V14.00,2013-07-19 06:53:00,
2013-07-19 02:54:00,80.6,72.3,29.90,SSW,204,2.7,2.7,76,0.00,,,0.00,VWS V14.00,2013-07-19 06:54:00,
2013-07-19 02:55:00,80.6,72.3,29.90,SW,235,3.1,3.1,76,0.00,,,0.00,VWS V14.00,2013-07-19 06:55:00,
2013-07-19 02:56:00,80.6,72.3,29.90,SW,235,3.1,3.6,76,0.00,,,0.00,VWS V14.00,2013-07-19 06:56:00,
2013-07-19 02:57:00,80.6,72.3,29.90,SW,235,3.1,3.1,76,0.00,,,0.00,VWS V14.00,2013-07-19 06:57:00,
2013-07-19 02:58:00,80.6,72.7,29.90,SW,235,3.1,3.1,77,0.00,,,0.00,VWS V14.00,2013-07-19 06:58:00,
2013-07-19 02:59:00,80.6,72.7,29.90,SSW,205,2.7,3.1,77,0.00,,,0.00,VWS V14.00,2013-07-19 06:59:00,
2013-07-19 03:00:00,80.6,72.7,29.90,SSW,205,2.7,2.7,77,0.00,,,0.00,VWS V14.00,2013-07-19 07:00:00,
2013-07-19 03:01:00,80.6,72.7,29.90,SSW,210,3.1,3.1,77,0.00,,,0.00,VWS V14.00,2013-07-19 07:01:00,
2013-07-19 03:02:00,80.6,72.7,29.90,SSW,211,3.1,3.1,77,0.00,,,0.00,VWS V14.00,2013-07-19 07:02:00,
2013-07-19 03:03:00,80.6,72.7,29.90,SSW,210,3.1,3.1,77,0.00,,,0.00,VWS V14.00,2013-07-19 07:03:00,
2013-07-19 03:04:00,80.6,72.7,29.90,SW,217,3.1,3.1,77,0.00,,,0.00,VWS V14.00,2013-07-19 07:04:00,
2013-07-19 03:05:00,80.6,72.7,29.90,SSW,202,2.7,3.1,77,0.00,,,0.00,VWS V14.00,2013-07-19 07:05:00,
2013-07-19 03:06:00,80.6,72.7,29.90,SW,214,3.1,3.6,77,0.00,,,0.00,VWS V14.00,2013-07-19 07:06:00,
2013-07-19 03:07:00,80.6,72.7,29.90,SSW,210,3.6,3.6,77,0.00,,,0.00,VWS V14.00,2013-07-19 07:07:00,
2013-07-19 03:08:00,80.6,72.7,29.90,SW,214,3.1,3.6,77,0.00,,,0.00,VWS V14.00,2013-07-19 07:08:00,
2013-07-19 03:09:00,80.6,72.7,29.90,SW,215,2.7,3.1,77,0.00,,,0.00,VWS V14.00,2013-07-19 07:09:00,
2013-07-19 03:10:00,80.6,72.7,29.90,SW,215,2.7,2.7,77,0.00,,,0.00,VWS V14.00,2013-07-19 07:10:00,
2013-07-19 03:11:00,80.6,72.7,29.90,SW,223,3.6,3.6,77,0.00,,,0.00,VWS V14.00,2013-07-19 07:11:00,
2013-07-19 03:12:00,80.6,72.7,29.90,South,189,3.1,3.6,77,0.00,,,0.00,VWS V14.00,2013-07-19 07:12:00,
2013-07-19 03:13:00,80.6,72.7,29.90,SSW,203,3.6,3.6,77,0.00,,,0.00,VWS V14.00,2013-07-19 07:13:00,
2013-07-19 03:14:00,80.6,72.7,29.90,South,189,3.1,3.6,77,0.00,,,0.00,VWS V14.00,2013-07-19 07:14:00,
2013-07-19 03:15:00,80.6,72.7,29.90,SW,215,5.4,5.4,77,0.00,,,0.00,VWS V14.00,2013-07-19 07:15:00,
2013-07-19 03:16:00,80.6,72.7,29.90,SW,227,2.7,5.4,77,0.00,,,0.00,VWS V14.00,2013-07-19 07:16:00,
2013-07-19 03:17:00,80.4,72.9,29.90,SW,224,3.6,3.6,78,0.00,,,0.00,VWS V14.00,2013-07-19 07:17:00,
2013-07-19 03:18:00,80.4,72.9,29.90,WSW,245,2.7,4.9,78,0.00,,,0.00,VWS V14.00,2013-07-19 07:18:00,
2013-07-19 03:19:00,80.4,72.9,29.90,SW,224,3.6,3.6,78,0.00,,,0.00,VWS V14.00,2013-07-19 07:19:00,
2013-07-19 03:20:00,80.4,72.9,29.90,SW,224,3.6,3.6,78,0.00,,,0.00,VWS V14.00,2013-07-19 07:20:00,
2013-07-19 03:21:00,80.4,72.9,29.90,SW,222,3.1,4.0,78,0.00,,,0.00,VWS V14.00,2013-07-19 07:21:00,
2013-07-19 03:22:00,80.4,72.9,29.90,SW,222,3.1,3.1,78,0.00,,,0.00,VWS V14.00,2013-07-19 07:22:00,
2013-07-19 03:23:00,80.4,72.9,29.90,SSW,213,2.7,4.0,78,0.00,,,0.00,VWS V14.00,2013-07-19 07:23:00,
2013-07-19 03:24:00,80.4,72.9,29.90,SW,223,4.0,4.0,78,0.00,,,0.00,VWS V14.00,2013-07-19 07:24:00,
2013-07-19 03:25:00,80.4,72.9,29.90,SSW,213,2.7,4.0,78,0.00,,,0.00,VWS V14.00,2013-07-19 07:25:00,
2013-07-19 03:26:00,80.4,72.9,29.90,SSE,167,4.0,4.0,78,0.00,,,0.00,VWS V14.00,2013-07-19 07:26:00,
2013-07-19 03:27:00,80.4,72.9,29.90,SSE,167,4.0,4.0,78,0.00,,,0.00,VWS V14.00,2013-07-19 07:27:00,
2013-07-19 03:28:00,80.4,72.9,29.90,SW,219,6.3,6.3,78,0.00,,,0.00,VWS V14.00,2013-07-19 07:28:00,
2013-07-19 03:29:00,80.4,72.9,29.90,SW,225,2.2,5.8,78,0.00,,,0.00,VWS V14.00,2013-07-19 07:29:00,
2013-07-19 03:30:00,80.4,72.9,29.90,SSW,210,5.8,6.3,78,0.00,,,0.00,VWS V14.00,2013-07-19 07:30:00,
2013-07-19 03:31:00,80.4,72.9,29.90,SW,225,2.2,5.8,78,0.00,,,0.00,VWS V14.00,2013-07-19 07:31:00,
2013-07-19 03:32:00,80.4,72.9,29.90,SW,225,2.2,2.2,78,0.00,,,0.00,VWS V14.00,2013-07-19 07:32:00,
2013-07-19 03:33:00,80.4,72.9,29.90,SW,225,2.2,2.2,78,0.00,,,0.00,VWS V14.00,2013-07-19 07:33:00,
2013-07-19 03:34:00,80.4,72.9,29.90,SSW,213,2.2,5.4,78,0.00,,,0.00,VWS V14.00,2013-07-19 07:34:00,
2013-07-19 03:35:00,80.4,72.9,29.90,SSW,213,5.4,5.4,78,0.00,,,0.00,VWS V14.00,2013-07-19 07:35:00,
2013-07-19 03:36:00,80.4,72.9,29.90,SSW,213,2.2,5.4,78,0.00,,,0.00,VWS V14.00,2013-07-19 07:36:00,
2013-07-19 03:37:00,80.4,72.9,29.90,SW,220,3.6,3.6,78,0.00,,,0.00,VWS V14.00,2013-07-19 07:37:00,
2013-07-19 03:38:00,80.4,72.9,29.90,SW,220,3.6,3.6,78,0.00,,,0.00,VWS V14.00,2013-07-19 07:38:00,
2013-07-19 03:39:00,80.6,73.1,29.90,SSW,194,4.0,4.0,78,0.00,,,0.00,VWS V14.00,2013-07-19 07:39:00,
2013-07-19 03:40:00,80.6,73.1,29.90,SSW,194,4.0,4.0,78,0.00,,,0.00,VWS V14.00,2013-07-19 07:40:00,
2013-07-19 03:41:00,80.6,73.1,29.90,SSW,194,4.0,4.0,78,0.00,,,0.00,VWS V14.00,2013-07-19 07:41:00,
2013-07-19 03:42:00,80.6,73.1,29.90,SW,226,3.1,4.0,78,0.00,,,0.00,VWS V14.00,2013-07-19 07:42:00,
2013-07-19 03:43:00,80.6,73.1,29.90,SW,226,3.1,3.1,78,0.00,,,0.00,VWS V14.00,2013-07-19 07:43:00,
2013-07-19 03:44:00,80.6,73.1,29.90,SW,222,2.2,3.6,78,0.00,,,0.00,VWS V14.00,2013-07-19 07:44:00,
2013-07-19 03:45:00,80.6,73.1,29.90,SSW,208,3.6,4.0,78,0.00,,,0.00,VWS V14.00,2013-07-19 07:45:00,
2013-07-19 03:46:00,80.6,73.1,29.90,SW,222,2.2,3.6,78,0.00,,,0.00,VWS V14.00,2013-07-19 07:46:00,
2013-07-19 03:47:00,80.6,73.1,29.90,SSW,200,3.6,3.6,78,0.00,,,0.00,VWS V14.00,2013-07-19 07:47:00,
2013-07-19 03:48:00,80.4,73.3,29.90,SSW,200,3.6,3.6,79,0.00,,,0.00,VWS V14.00,2013-07-19 07:48:00,
2013-07-19 03:49:00,80.4,73.3,29.90,WSW,239,0.0,3.6,79,0.00,,,0.00,VWS V14.00,2013-07-19 07:49:00,
2013-07-19 03:50:00,80.4,73.3,29.90,SW,219,3.6,3.6,79,0.00,,,0.00,VWS V14.00,2013-07-19 07:50:00,
2013-07-19 03:51:00,80.4,73.3,29.90,WSW,239,0.0,3.6,79,0.00,,,0.00,VWS V14.00,2013-07-19 07:51:00,
2013-07-19 03:52:00,80.4,73.3,29.90,WSW,239,0.0,0.0,79,0.00,,,0.00,VWS V14.00,2013-07-19 07:52:00,
2013-07-19 03:53:00,80.4,73.3,29.90,WSW,239,0.0,0.0,79,0.00,,,0.00,VWS V14.00,2013-07-19 07:53:00,
2013-07-19 03:54:00,80.4,73.3,29.90,SSW,205,5.4,5.4,79,0.00,,,0.00,VWS V14.00,2013-07-19 07:54:00,
2013-07-19 03:55:00,80.4,73.3,29.90,SW,220,2.7,2.7,79,0.00,,,0.00,VWS V14.00,2013-07-19 07:55:00,
2013-07-19 03:56:00,80.4,73.3,29.90,SW,220,2.7,2.7,79,0.00,,,0.00,VWS V14.00,2013-07-19 07:56:00,
2013-07-19 03:57:00,80.4,73.3,29.90,SW,220,2.7,2.7,79,0.00,,,0.00,VWS V14.00,2013-07-19 07:57:00,
2013-07-19 03:58:00,80.4,73.3,29.90,SW,221,2.7,2.7,79,0.00,,,0.00,VWS V14.00,2013-07-19 07:58:00,
2013-07-19 03:59:00,80.4,73.3,29.90,SSW,209,3.6,3.6,79,0.00,,,0.00,VWS V14.00,2013-07-19 07:59:00,
2013-07-19 04:00:00,80.4,73.3,29.90,SSW,208,6.3,6.3,79,0.00,,,0.00,VWS V14.00,2013-07-19 08:00:00,
2013-07-19 04:01:00,80.4,73.3,29.90,SSW,207,0.0,3.1,79,0.00,,,0.00,VWS V14.00,2013-07-19 08:01:00,
2013-07-19 04:02:00,80.4,73.3,29.90,SSW,208,6.3,6.3,79,0.00,,,0.00,VWS V14.00,2013-07-19 08:02:00,
2013-07-19 04:03:00,80.4,73.3,29.90,SSW,206,3.6,6.3,79,0.00,,,0.00,VWS V14.00,2013-07-19 08:03:00,
2013-07-19 04:04:00,80.4,73.3,29.90,SW,235,2.7,3.6,79,0.00,,,0.00,VWS V14.00,2013-07-19 08:04:00,
2013-07-19 04:05:00,80.4,73.3,29.90,SSW,196,3.1,3.1,79,0.00,,,0.00,VWS V14.00,2013-07-19 08:05:00,
2013-07-19 04:06:00,80.4,73.3,29.90,South,176,3.1,3.1,79,0.00,,,0.00,VWS V14.00,2013-07-19 08:06:00,
2013-07-19 04:07:00,80.4,73.3,29.90,SSW,196,3.1,3.1,79,0.00,,,0.00,VWS V14.00,2013-07-19 08:07:00,
2013-07-19 04:08:00,80.4,73.3,29.90,SW,219,4.9,4.9,79,0.00,,,0.00,VWS V14.00,2013-07-19 08:08:00,
2013-07-19 04:09:00,80.4,73.3,29.90,SW,219,4.9,4.9,79,0.00,,,0.00,VWS V14.00,2013-07-19 08:09:00,
2013-07-19 04:10:00,80.4,73.3,29.90,SSW,204,5.8,5.8,79,0.00,,,0.00,VWS V14.00,2013-07-19 08:10:00,
2013-07-19 04:11:00,80.4,73.3,29.90,SSW,203,3.6,5.8,79,0.00,,,0.00,VWS V14.00,2013-07-19 08:11:00,
2013-07-19 04:12:00,80.4,73.3,29.90,SSW,204,5.8,5.8,79,0.00,,,0.00,VWS V14.00,2013-07-19 08:12:00,
2013-07-19 04:14:00,80.4,73.3,29.90,SSW,203,3.6,3.6,79,0.00,,,0.00,VWS V14.00,2013-07-19 08:14:00,
2013-07-19 04:15:00,80.4,73.3,29.90,SSW,203,3.6,3.6,79,0.00,,,0.00,VWS V14.00,2013-07-19 08:15:00,
2013-07-19 04:16:00,80.4,73.3,29.90,SW,225,2.2,5.4,79,0.00,,,0.00,VWS V14.00,2013-07-19 08:16:00,
2013-07-19 04:17:00,80.4,73.3,29.90,SSW,209,5.4,5.8,79,0.00,,,0.00,VWS V14.00,2013-07-19 08:17:00,
2013-07-19 04:18:00,80.4,73.3,29.90,SW,225,2.2,5.4,79,0.00,,,0.00,VWS V14.00,2013-07-19 08:18:00,
2013-07-19 04:19:00,80.4,73.3,29.90,SW,218,3.1,3.1,79,0.00,,,0.00,VWS V14.00,2013-07-19 08:19:00,
2013-07-19 04:20:00,80.4,73.3,29.90,SW,218,3.1,3.1,79,0.00,,,0.00,VWS V14.00,2013-07-19 08:20:00,
2013-07-19 04:21:00,80.4,73.3,29.90,SW,218,3.1,3.1,79,0.00,,,0.00,VWS V14.00,2013-07-19 08:21:00,
2013-07-19 04:22:00,80.4,73.3,29.90,SSW,210,5.4,5.4,79,0.00,,,0.00,VWS V14.00,2013-07-19 08:22:00,
2013-07-19 04:23:00,80.4,73.3,29.90,SW,218,3.1,3.1,79,0.00,,,0.00,VWS V14.00,2013-07-19 08:23:00,
2013-07-19 04:24:00,80.4,73.3,29.90,SSW,210,5.4,5.4,79,0.00,,,0.00,VWS V14.00,2013-07-19 08:24:00,
2013-07-19 04:25:00,80.4,73.3,29.90,SSW,210,5.4,5.4,79,0.00,,,0.00,VWS V14.00,2013-07-19 08:25:00,
2013-07-19 04:26:00,80.4,73.3,29.90,SSW,210,5.4,5.4,79,0.00,,,0.00,VWS V14.00,2013-07-19 08:26:00,
2013-07-19 04:27:00,80.4,73.3,29.90,SW,232,3.6,3.6,79,0.00,,,0.00,VWS V14.00,2013-07-19 08:27:00,
2013-07-19 04:28:00,80.4,73.3,29.90,SW,232,3.6,3.6,79,0.00,,,0.00,VWS V14.00,2013-07-19 08:28:00,
2013-07-19 04:29:00,80.4,73.3,29.90,SW,232,3.6,3.6,79,0.00,,,0.00,VWS V14.00,2013-07-19 08:29:00,
2013-07-19 04:30:00,80.4,73.3,29.90,SSW,208,4.9,4.9,79,0.00,,,0.00,VWS V14.00,2013-07-19 08:30:00,
2013-07-19 04:31:00,80.4,73.3,29.87,SSW,213,6.3,6.3,79,0.00,,,0.00,VWS V14.00,2013-07-19 08:31:00,
2013-07-19 04:32:00,80.4,73.3,29.87,SSW,196,3.1,6.3,79,0.00,,,0.00,VWS V14.00,2013-07-19 08:32:00,
2013-07-19 04:33:00,80.4,73.3,29.87,SW,221,4.9,4.9,79,0.00,,,0.00,VWS V14.00,2013-07-19 08:33:00,
2013-07-19 04:34:00,80.4,73.3,29.87,SW,221,4.9,5.4,79,0.00,,,0.00,VWS V14.00,2013-07-19 08:34:00,
2013-07-19 04:35:00,80.4,73.3,29.87,SW,221,4.9,4.9,79,0.00,,,0.00,VWS V14.00,2013-07-19 08:35:00,
2013-07-19 04:36:00,80.4,73.3,29.87,SW,221,4.9,4.9,79,0.00,,,0.00,VWS V14.00,2013-07-19 08:36:00,
2013-07-19 04:37:00,80.4,73.3,29.87,SSW,204,4.0,4.9,79,0.00,,,0.00,VWS V14.00,2013-07-19 08:37:00,
2013-07-19 04:38:00,80.4,73.3,29.87,SW,216,2.7,2.7,79,0.00,,,0.00,VWS V14.00,2013-07-19 08:38:00,
2013-07-19 04:39:00,80.4,73.3,29.87,SW,216,2.7,2.7,79,0.00,,,0.00,VWS V14.00,2013-07-19 08:39:00,
2013-07-19 04:40:00,80.4,73.3,29.87,SW,216,2.7,2.7,79,0.00,,,0.00,VWS V14.00,2013-07-19 08:40:00,
2013-07-19 04:41:00,80.4,73.3,29.87,SSW,195,2.7,2.7,79,0.00,,,0.00,VWS V14.00,2013-07-19 08:41:00,
2013-07-19 04:42:00,80.4,73.3,29.87,SSW,195,2.7,2.7,79,0.00,,,0.00,VWS V14.00,2013-07-19 08:42:00,
2013-07-19 04:43:00,80.4,73.3,29.87,SW,214,5.4,5.4,79,0.00,,,0.00,VWS V14.00,2013-07-19 08:43:00,
2013-07-19 04:44:00,80.4,73.3,29.87,SSW,206,3.1,3.1,79,0.00,,,0.00,VWS V14.00,2013-07-19 08:44:00,
2013-07-19 04:45:00,80.4,73.3,29.87,SW,214,5.4,5.4,79,0.00,,,0.00,VWS V14.00,2013-07-19 08:45:00,
2013-07-19 04:46:00,80.4,72.9,29.87,SSW,198,5.8,5.8,78,0.00,,,0.00,VWS V14.00,2013-07-19 08:46:00,
2013-07-19 04:47:00,80.4,72.9,29.87,SSW,198,5.8,5.8,78,0.00,,,0.00,VWS V14.00,2013-07-19 08:47:00,
2013-07-19 04:48:00,80.4,72.9,29.87,SSW,198,5.4,5.4,78,0.00,,,0.00,VWS V14.00,2013-07-19 08:48:00,
2013-07-19 04:49:00,80.4,72.9,29.87,SSW,198,5.4,5.4,78,0.00,,,0.00,VWS V14.00,2013-07-19 08:49:00,
2013-07-19 04:50:00,80.4,72.9,29.87,SSW,198,5.4,5.4,78,0.00,,,0.00,VWS V14.00,2013-07-19 08:50:00,
2013-07-19 04:51:00,80.4,72.9,29.87,South,186,2.7,5.4,78,0.00,,,0.00,VWS V14.00,2013-07-19 08:51:00,
2013-07-19 04:52:00,80.4,72.9,29.87,SSW,213,0.0,2.7,78,0.00,,,0.00,VWS V14.00,2013-07-19 08:52:00,
2013-07-19 04:53:00,80.4,72.9,29.87,SSW,207,5.4,5.4,78,0.00,,,0.00,VWS V14.00,2013-07-19 08:53:00,
2013-07-19 04:54:00,80.4,72.9,29.87,SSW,207,5.4,7.6,78,0.00,,,0.00,VWS V14.00,2013-07-19 08:54:00,
2013-07-19 04:55:00,80.4,72.9,29.87,SSW,207,5.4,5.4,78,0.00,,,0.00,VWS V14.00,2013-07-19 08:55:00,
2013-07-19 04:56:00,80.4,72.9,29.87,SW,231,3.1,5.8,78,0.00,,,0.00,VWS V14.00,2013-07-19 08:56:00,
2013-07-19 04:57:00,80.4,72.9,29.87,SW,231,3.1,3.1,78,0.00,,,0.00,VWS V14.00,2013-07-19 08:57:00,
2013-07-19 04:58:00,80.4,72.9,29.87,SW,231,3.1,3.1,78,0.00,,,0.00,VWS V14.00,2013-07-19 08:58:00,
2013-07-19 04:59:00,80.4,72.9,29.87,SW,217,4.0,4.0,78,0.00,,,0.00,VWS V14.00,2013-07-19 08:59:00,
2013-07-19 05:00:00,80.4,72.9,29.87,SW,217,4.0,5.8,78,0.00,,,0.00,VWS V14.00,2013-07-19 09:00:00,
2013-07-19 05:01:00,80.4,72.9,29.87,SW,217,4.0,4.0,78,0.00,,,0.00,VWS V14.00,2013-07-19 09:01:00,
2013-07-19 05:02:00,80.4,72.9,29.87,SW,219,5.4,5.4,78,0.00,,,0.00,VWS V14.00,2013-07-19 09:02:00,
2013-07-19 05:03:00,80.4,72.9,29.87,South,178,5.8,5.8,78,0.00,,,0.00,VWS V14.00,2013-07-19 09:03:00,
2013-07-19 05:04:00,80.4,72.9,29.87,WSW,237,3.6,5.8,78,0.00,,,0.00,VWS V14.00,2013-07-19 09:04:00,
2013-07-19 05:05:00,80.4,72.9,29.87,South,178,5.8,5.8,78,0.00,,,0.00,VWS V14.00,2013-07-19 09:05:00,
2013-07-19 05:06:00,80.4,72.9,29.87,WSW,237,3.6,5.8,78,0.00,,,0.00,VWS V14.00,2013-07-19 09:06:00,
2013-07-19 05:07:00,80.4,72.9,29.87,SSW,205,4.0,4.0,78,0.00,,,0.00,VWS V14.00,2013-07-19 09:07:00,
2013-07-19 05:08:00,80.6,72.7,29.87,SSW,205,4.0,4.0,77,0.00,,,0.00,VWS V14.00,2013-07-19 09:08:00,
2013-07-19 05:09:00,80.6,72.7,29.87,SW,214,6.3,6.3,77,0.00,,,0.00,VWS V14.00,2013-07-19 09:09:00,
2013-07-19 05:10:00,80.6,72.7,29.87,SW,227,5.8,5.8,77,0.00,,,0.00,VWS V14.00,2013-07-19 09:10:00,
2013-07-19 05:11:00,80.6,72.7,29.87,SW,235,3.1,6.3,77,0.00,,,0.00,VWS V14.00,2013-07-19 09:11:00,
2013-07-19 05:12:00,80.6,72.7,29.87,SW,227,5.8,5.8,77,0.00,,,0.00,VWS V14.00,2013-07-19 09:12:00,
2013-07-19 05:13:00,80.6,72.7,29.87,SW,227,5.8,5.8,77,0.00,,,0.00,VWS V14.00,2013-07-19 09:13:00,
2013-07-19 05:14:00,80.6,72.7,29.87,SW,227,5.8,5.8,77,0.00,,,0.00,VWS V14.00,2013-07-19 09:14:00,
2013-07-19 05:15:00,80.6,72.7,29.87,SSW,213,8.7,8.7,77,0.00,,,0.00,VWS V14.00,2013-07-19 09:15:00,
2013-07-19 05:16:00,80.6,72.7,29.87,SW,217,4.0,5.8,77,0.00,,,0.00,VWS V14.00,2013-07-19 09:16:00,
2013-07-19 05:17:00,80.6,72.7,29.87,SSW,213,8.7,8.7,77,0.00,,,0.00,VWS V14.00,2013-07-19 09:17:00,
2013-07-19 05:18:00,80.6,72.7,29.87,SSW,213,8.7,8.7,77,0.00,,,0.00,VWS V14.00,2013-07-19 09:18:00,
2013-07-19 05:19:00,80.6,72.7,29.87,WSW,242,8.3,8.7,77,0.00,,,0.00,VWS V14.00,2013-07-19 09:19:00,
2013-07-19 05:20:00,80.8,72.5,29.87,SW,214,2.7,2.7,76,0.00,,,0.00,VWS V14.00,2013-07-19 09:20:00,
2013-07-19 05:21:00,80.8,72.5,29.87,SW,214,2.7,5.4,76,0.00,,,0.00,VWS V14.00,2013-07-19 09:21:00,
2013-07-19 05:22:00,80.8,72.5,29.87,SW,214,2.7,2.7,76,0.00,,,0.00,VWS V14.00,2013-07-19 09:22:00,
2013-07-19 05:23:00,80.8,72.5,29.87,SW,221,4.0,4.0,76,0.00,,,0.00,VWS V14.00,2013-07-19 09:23:00,
2013-07-19 05:24:00,80.8,72.5,29.87,SW,221,4.0,4.0,76,0.00,,,0.00,VWS V14.00,2013-07-19 09:24:00,
2013-07-19 05:25:00,80.8,72.5,29.87,SW,230,3.6,6.7,76,0.00,,,0.00,VWS V14.00,2013-07-19 09:25:00,
2013-07-19 05:26:00,80.8,72.1,29.87,SW,230,3.6,3.6,75,0.00,,,0.00,VWS V14.00,2013-07-19 09:26:00,
2013-07-19 05:27:00,80.8,72.5,29.87,SW,230,3.6,3.6,76,0.00,,,0.00,VWS V14.00,2013-07-19 09:27:00,
2013-07-19 05:28:00,80.8,72.1,29.87,SW,230,3.6,3.6,75,0.00,,,0.00,VWS V14.00,2013-07-19 09:28:00,
2013-07-19 05:29:00,80.8,72.1,29.87,SSW,195,4.9,7.2,75,0.00,,,0.00,VWS V14.00,2013-07-19 09:29:00,
2013-07-19 05:30:00,80.8,72.1,29.87,SSW,210,5.8,5.8,75,0.00,,,0.00,VWS V14.00,2013-07-19 09:30:00,
2013-07-19 05:31:00,80.8,72.1,29.87,SW,219,6.3,6.3,75,0.00,,,0.00,VWS V14.00,2013-07-19 09:31:00,
2013-07-19 05:32:00,80.8,72.1,29.84,WSW,240,8.1,8.1,75,0.00,,,0.00,VWS V14.00,2013-07-19 09:32:00,
2013-07-19 05:33:00,80.8,72.1,29.84,SSW,203,4.9,4.9,75,0.00,,,0.00,VWS V14.00,2013-07-19 09:33:00,
2013-07-19 05:34:00,80.8,72.1,29.84,WSW,240,8.1,8.1,75,0.00,,,0.00,VWS V14.00,2013-07-19 09:34:00,
2013-07-19 05:35:00,81.0,72.3,29.84,WSW,240,8.1,8.1,75,0.00,,,0.00,VWS V14.00,2013-07-19 09:35:00,
2013-07-19 05:36:00,81.0,72.3,29.84,SSW,207,7.6,8.1,75,0.00,,,0.00,VWS V14.00,2013-07-19 09:36:00,
2013-07-19 05:37:00,81.0,72.3,29.84,SSW,202,8.1,8.1,75,0.00,,,0.00,VWS V14.00,2013-07-19 09:37:00,
2013-07-19 05:38:00,81.0,71.9,29.84,SSW,208,3.1,6.3,74,0.00,,,0.00,VWS V14.00,2013-07-19 09:38:00,
2013-07-19 05:39:00,81.0,72.3,29.84,SSW,194,6.3,6.3,75,0.00,,,0.00,VWS V14.00,2013-07-19 09:39:00,
2013-07-19 05:40:00,81.0,71.9,29.84,SSW,208,3.1,6.3,74,0.00,,,0.00,VWS V14.00,2013-07-19 09:40:00,
2013-07-19 05:41:00,81.0,71.9,29.84,SSW,212,6.3,6.3,74,0.00,,,0.00,VWS V14.00,2013-07-19 09:41:00,
2013-07-19 05:42:00,81.1,72.1,29.84,NW,318,3.1,6.3,74,0.00,,,0.00,VWS V14.00,2013-07-19 09:42:00,
2013-07-19 05:43:00,81.0,71.9,29.84,SSW,209,4.9,4.9,74,0.00,,,0.00,VWS V14.00,2013-07-19 09:43:00,
2013-07-19 05:44:00,81.1,72.1,29.84,SSW,209,4.9,4.9,74,0.00,,,0.00,VWS V14.00,2013-07-19 09:44:00,
2013-07-19 05:45:00,81.0,71.9,29.84,SSW,209,4.9,4.9,74,0.00,,,0.00,VWS V14.00,2013-07-19 09:45:00,
2013-07-19 05:46:00,81.0,71.9,29.84,SSW,209,4.9,4.9,74,0.00,,,0.00,VWS V14.00,2013-07-19 09:46:00,
2013-07-19 05:47:00,81.1,72.1,29.84,SSW,209,4.9,4.9,74,0.00,,,0.00,VWS V14.00,2013-07-19 09:47:00,
2013-07-19 05:48:00,81.1,72.1,29.87,SSW,206,5.8,5.8,74,0.00,,,0.00,VWS V14.00,2013-07-19 09:48:00,
2013-07-19 05:49:00,81.1,72.1,29.87,WSW,257,3.1,3.1,74,0.00,,,0.00,VWS V14.00,2013-07-19 09:49:00,
2013-07-19 05:50:00,81.1,72.1,29.87,SSW,206,5.8,5.8,74,0.00,,,0.00,VWS V14.00,2013-07-19 09:50:00,
2013-07-19 05:51:00,81.1,72.1,29.87,SSW,206,5.8,5.8,74,0.00,,,0.00,VWS V14.00,2013-07-19 09:51:00,
2013-07-19 05:52:00,81.1,72.1,29.87,SSW,206,5.8,5.8,74,0.00,,,0.00,VWS V14.00,2013-07-19 09:52:00,
2013-07-19 05:53:00,81.0,71.9,29.87,SSW,193,5.8,6.3,74,0.00,,,0.00,VWS V14.00,2013-07-19 09:53:00,
2013-07-19 05:54:00,81.0,71.9,29.87,WSW,237,6.3,7.2,74,0.00,,,0.00,VWS V14.00,2013-07-19 09:54:00,
2013-07-19 05:55:00,81.0,71.9,29.87,SSW,193,5.8,6.3,74,0.00,,,0.00,VWS V14.00,2013-07-19 09:55:00,
2013-07-19 05:56:00,81.0,71.9,29.87,SW,231,5.4,5.8,74,0.00,,,0.00,VWS V14.00,2013-07-19 09:56:00,
2013-07-19 05:57:00,81.0,71.9,29.87,SW,235,5.4,5.4,74,0.00,,,0.00,VWS V14.00,2013-07-19 09:57:00,
2013-07-19 05:58:00,81.0,71.9,29.87,South,191,5.8,5.8,74,0.00,,,0.00,VWS V14.00,2013-07-19 09:58:00,
2013-07-19 05:59:00,81.0,71.9,29.87,SW,235,5.4,5.4,74,0.00,,,0.00,VWS V14.00,2013-07-19 09:59:00,
2013-07-19 06:00:00,81.0,71.9,29.87,South,191,5.8,5.8,74,0.00,,,0.00,VWS V14.00,2013-07-19 10:00:00,
2013-07-19 06:01:00,81.0,71.9,29.87,South,191,5.8,5.8,74,0.00,,,0.00,VWS V14.00,2013-07-19 10:01:00,
2013-07-19 06:02:00,81.0,71.9,29.87,South,191,5.8,5.8,74,0.00,,,0.00,VWS V14.00,2013-07-19 10:02:00,
2013-07-19 06:03:00,81.0,71.9,29.87,SSW,204,3.6,3.6,74,0.00,,,0.00,VWS V14.00,2013-07-19 10:03:00,
2013-07-19 06:04:00,81.0,71.9,29.87,South,191,5.8,5.8,74,0.00,,,0.00,VWS V14.00,2013-07-19 10:04:00,
2013-07-19 06:05:00,81.0,71.9,29.87,SSW,204,3.6,5.8,74,0.00,,,0.00,VWS V14.00,2013-07-19 10:05:00,
2013-07-19 06:06:00,81.0,71.9,29.87,SSW,205,4.5,4.5,74,0.00,,,0.00,VWS V14.00,2013-07-19 10:06:00,
2013-07-19 06:07:00,81.0,71.9,29.87,SW,217,4.9,4.9,74,0.00,,,0.00,VWS V14.00,2013-07-19 10:07:00,
2013-07-19 06:08:00,81.0,71.9,29.87,SW,217,4.9,4.9,74,0.00,,,0.00,VWS V14.00,2013-07-19 10:08:00,
2013-07-19 06:09:00,81.0,71.9,29.87,SSW,211,3.1,7.6,74,0.00,,,0.00,VWS V14.00,2013-07-19 10:09:00,
2013-07-19 06:10:00,81.0,71.9,29.87,SSW,213,7.6,7.6,74,0.00,,,0.00,VWS V14.00,2013-07-19 10:10:00,
2013-07-19 06:11:00,81.0,71.9,29.87,SSW,211,3.1,7.6,74,0.00,,,0.00,VWS V14.00,2013-07-19 10:11:00,
2013-07-19 06:12:00,81.0,71.9,29.87,SSW,211,3.1,3.1,74,0.00,,,0.00,VWS V14.00,2013-07-19 10:12:00,
2013-07-19 06:13:00,81.0,71.9,29.87,SSW,211,3.1,3.1,74,0.00,,,0.00,VWS V14.00,2013-07-19 10:13:00,
2013-07-19 06:14:00,80.8,71.7,29.87,SSW,213,5.8,5.8,74,0.00,,,0.00,VWS V14.00,2013-07-19 10:14:00,
2013-07-19 06:15:00,80.8,71.7,29.87,SSW,213,5.8,5.8,74,0.00,,,0.00,VWS V14.00,2013-07-19 10:15:00,
2013-07-19 06:16:00,80.8,71.7,29.87,SSW,213,5.8,5.8,74,0.00,,,0.00,VWS V14.00,2013-07-19 10:16:00,
2013-07-19 06:17:00,80.8,71.7,29.87,SW,221,3.6,5.8,74,0.00,,,0.00,VWS V14.00,2013-07-19 10:17:00,
2013-07-19 06:18:00,80.8,71.7,29.87,SSW,210,5.8,5.8,74,0.00,,,0.00,VWS V14.00,2013-07-19 10:18:00,
2013-07-19 06:19:00,80.8,71.7,29.87,SW,225,4.0,4.9,74,0.00,,,0.00,VWS V14.00,2013-07-19 10:19:00,
2013-07-19 06:20:00,80.8,71.7,29.87,SW,230,4.9,6.3,74,0.00,,,0.00,VWS V14.00,2013-07-19 10:20:00,
2013-07-19 06:21:00,80.8,71.7,29.87,SW,225,4.0,4.9,74,0.00,,,0.00,VWS V14.00,2013-07-19 10:21:00,
2013-07-19 06:22:00,80.8,71.7,29.87,SW,214,4.0,4.0,74,0.00,,,0.00,VWS V14.00,2013-07-19 10:22:00,
2013-07-19 06:23:00,80.8,71.7,29.87,South,188,8.1,8.1,74,0.00,,,0.00,VWS V14.00,2013-07-19 10:23:00,
2013-07-19 06:24:00,80.8,71.7,29.87,South,188,8.1,8.1,74,0.00,,,0.00,VWS V14.00,2013-07-19 10:24:00,
2013-07-19 06:25:00,80.8,71.7,29.87,SW,231,5.8,5.8,74,0.00,,,0.00,VWS V14.00,2013-07-19 10:25:00,
2013-07-19 06:26:00,80.8,71.7,29.87,SW,231,5.8,8.1,74,0.00,,,0.00,VWS V14.00,2013-07-19 10:26:00,
2013-07-19 06:27:00,80.8,71.7,29.87,SW,231,5.8,5.8,74,0.00,,,0.00,VWS V14.00,2013-07-19 10:27:00,
2013-07-19 06:28:00,80.8,71.7,29.87,SW,231,5.8,5.8,74,0.00,,,0.00,VWS V14.00,2013-07-19 10:28:00,
2013-07-19 06:29:00,80.8,71.7,29.87,SSW,196,5.4,5.8,74,0.00,,,0.00,VWS V14.00,2013-07-19 10:29:00,
2013-07-19 06:30:00,80.8,71.7,29.87,SW,233,2.7,5.4,74,0.00,,,0.00,VWS V14.00,2013-07-19 10:30:00,
2013-07-19 06:31:00,81.0,71.5,29.87,SSW,213,5.4,6.7,73,0.00,,,0.00,VWS V14.00,2013-07-19 10:31:00,
2013-07-19 06:32:00,81.0,71.5,29.87,SW,218,5.4,7.2,73,0.00,,,0.00,VWS V14.00,2013-07-19 10:32:00,
2013-07-19 06:33:00,81.0,71.5,29.87,SSW,213,5.4,6.7,73,0.00,,,0.00,VWS V14.00,2013-07-19 10:33:00,
2013-07-19 06:34:00,81.0,71.5,29.87,SSW,213,5.4,5.4,73,0.00,,,0.00,VWS V14.00,2013-07-19 10:34:00,
2013-07-19 06:35:00,81.0,71.5,29.87,SSW,200,9.2,9.2,73,0.00,,,0.00,VWS V14.00,2013-07-19 10:35:00,
2013-07-19 06:36:00,81.0,71.5,29.87,West,263,4.0,4.0,73,0.00,,,0.00,VWS V14.00,2013-07-19 10:36:00,
2013-07-19 06:37:00,81.0,71.5,29.87,West,263,4.0,4.0,73,0.00,,,0.00,VWS V14.00,2013-07-19 10:37:00,
2013-07-19 06:38:00,81.0,71.5,29.87,West,263,4.0,4.0,73,0.00,,,0.00,VWS V14.00,2013-07-19 10:38:00,
2013-07-19 06:39:00,81.0,71.5,29.87,West,263,4.0,4.0,73,0.00,,,0.00,VWS V14.00,2013-07-19 10:39:00,
2013-07-19 06:40:00,81.0,71.5,29.87,NNW,327,3.6,4.0,73,0.00,,,0.00,VWS V14.00,2013-07-19 10:40:00,
2013-07-19 06:41:00,81.0,71.5,29.87,SSW,202,6.3,6.3,73,0.00,,,0.00,VWS V14.00,2013-07-19 10:41:00,
2013-07-19 06:42:00,81.0,71.5,29.87,SW,231,8.3,8.3,73,0.00,,,0.00,VWS V14.00,2013-07-19 10:42:00,
2013-07-19 06:43:00,81.0,71.5,29.87,SSW,212,3.6,4.9,73,0.00,,,0.00,VWS V14.00,2013-07-19 10:43:00,
2013-07-19 06:44:00,81.0,71.5,29.87,SW,231,8.3,8.3,73,0.00,,,0.00,VWS V14.00,2013-07-19 10:44:00,
2013-07-19 06:45:00,81.0,71.5,29.87,SW,221,4.0,8.3,73,0.00,,,0.00,VWS V14.00,2013-07-19 10:45:00,
2013-07-19 06:46:00,81.0,71.5,29.87,SSW,204,5.4,5.4,73,0.00,,,0.00,VWS V14.00,2013-07-19 10:46:00,
2013-07-19 06:47:00,81.0,71.5,29.87,SSW,200,4.9,8.3,73,0.00,,,0.00,VWS V14.00,2013-07-19 10:47:00,
2013-07-19 06:48:00,81.0,71.5,29.87,SW,222,8.3,8.3,73,0.00,,,0.00,VWS V14.00,2013-07-19 10:48:00,
2013-07-19 06:49:00,81.0,71.5,29.87,SSW,200,4.9,8.3,73,0.00,,,0.00,VWS V14.00,2013-07-19 10:49:00,
2013-07-19 06:50:00,81.0,71.5,29.87,SSW,200,4.9,4.9,73,0.00,,,0.00,VWS V14.00,2013-07-19 10:50:00,
2013-07-19 06:51:00,81.0,71.5,29.87,SSW,200,4.9,4.9,73,0.00,,,0.00,VWS V14.00,2013-07-19 10:51:00,
2013-07-19 06:52:00,81.0,71.5,29.87,SW,226,7.6,7.6,73,0.00,,,0.00,VWS V14.00,2013-07-19 10:52:00,
2013-07-19 06:53:00,81.0,71.5,29.87,SW,215,5.8,8.3,73,0.00,,,0.00,VWS V14.00,2013-07-19 10:53:00,
2013-07-19 06:54:00,81.0,71.5,29.87,SW,216,8.3,8.3,73,0.00,,,0.00,VWS V14.00,2013-07-19 10:54:00,
2013-07-19 06:55:00,81.0,71.5,29.87,SW,215,5.8,8.3,73,0.00,,,0.00,VWS V14.00,2013-07-19 10:55:00,
2013-07-19 06:56:00,81.0,71.5,29.87,SSW,205,3.1,5.8,73,0.00,,,0.00,VWS V14.00,2013-07-19 10:56:00,
2013-07-19 06:57:00,81.0,71.5,29.87,SSW,210,7.6,7.6,73,0.00,,,0.00,VWS V14.00,2013-07-19 10:57:00,
2013-07-19 06:58:00,81.0,71.5,29.87,SW,228,11.0,11.0,73,0.00,,,0.00,VWS V14.00,2013-07-19 10:58:00,
2013-07-19 06:59:00,81.0,71.5,29.87,SW,228,11.0,11.0,73,0.00,,,0.00,VWS V14.00,2013-07-19 10:59:00,
2013-07-19 07:00:00,81.0,71.5,29.87,SW,228,11.0,11.0,73,0.00,,,0.00,VWS V14.00,2013-07-19 11:00:00,
2013-07-19 07:01:00,81.0,71.1,29.87,SSW,195,8.7,11.0,72,0.00,,,0.00,VWS V14.00,2013-07-19 11:01:00,
2013-07-19 07:02:00,81.0,71.1,29.87,SSW,195,8.7,8.7,72,0.00,,,0.00,VWS V14.00,2013-07-19 11:02:00,
2013-07-19 07:03:00,81.1,71.3,29.87,SW,217,7.2,7.2,72,0.00,,,0.00,VWS V14.00,2013-07-19 11:03:00,
2013-07-19 07:04:00,81.1,71.3,29.87,West,267,6.7,6.7,72,0.00,,,0.00,VWS V14.00,2013-07-19 11:04:00,
2013-07-19 07:05:00,81.1,71.3,29.87,SSW,208,6.3,6.7,72,0.00,,,0.00,VWS V14.00,2013-07-19 11:05:00,
2013-07-19 07:06:00,81.1,71.3,29.87,SW,217,7.2,7.2,72,0.00,,,0.00,VWS V14.00,2013-07-19 11:06:00,
2013-07-19 07:07:00,81.0,71.1,29.84,SW,222,7.6,7.6,72,0.00,,,0.00,VWS V14.00,2013-07-19 11:07:00,
2013-07-19 07:08:00,81.0,71.1,29.84,SSW,209,8.1,8.1,72,0.00,,,0.00,VWS V14.00,2013-07-19 11:08:00,
2013-07-19 07:09:00,81.0,71.5,29.84,SW,226,5.8,8.1,73,0.00,,,0.00,VWS V14.00,2013-07-19 11:09:00,
2013-07-19 07:10:00,81.0,71.5,29.84,SSW,192,5.8,8.1,73,0.00,,,0.00,VWS V14.00,2013-07-19 11:10:00,
2013-07-19 07:11:00,81.0,71.5,29.84,SW,226,5.8,8.1,73,0.00,,,0.00,VWS V14.00,2013-07-19 11:11:00,
2013-07-19 07:12:00,81.0,71.5,29.84,SW,226,5.8,5.8,73,0.00,,,0.00,VWS V14.00,2013-07-19 11:12:00,
2013-07-19 07:13:00,81.0,71.5,29.84,SW,226,5.8,5.8,73,0.00,,,0.00,VWS V14.00,2013-07-19 11:13:00,
2013-07-19 07:14:00,81.0,71.5,29.84,SW,225,6.3,6.3,73,0.00,,,0.00,VWS V14.00,2013-07-19 11:14:00,
2013-07-19 07:15:00,81.0,71.5,29.84,SW,231,5.8,5.8,73,0.00,,,0.00,VWS V14.00,2013-07-19 11:15:00,
2013-07-19 07:16:00,81.0,71.5,29.84,SW,225,6.3,6.3,73,0.00,,,0.00,VWS V14.00,2013-07-19 11:16:00,
2013-07-19 07:17:00,81.0,71.5,29.84,WSW,251,4.9,6.3,73,0.00,,,0.00,VWS V14.00,2013-07-19 11:17:00,
2013-07-19 07:18:00,81.0,71.5,29.84,WSW,251,4.9,4.9,73,0.00,,,0.00,VWS V14.00,2013-07-19 11:18:00,
2013-07-19 07:19:00,81.0,71.5,29.84,WSW,251,4.9,4.9,73,0.00,,,0.00,VWS V14.00,2013-07-19 11:19:00,
2013-07-19 07:20:00,81.0,71.5,29.87,South,186,10.5,10.5,73,0.00,,,0.00,VWS V14.00,2013-07-19 11:20:00,
2013-07-19 07:21:00,81.0,71.5,29.84,WSW,251,4.9,4.9,73,0.00,,,0.00,VWS V14.00,2013-07-19 11:21:00,
2013-07-19 07:22:00,81.0,71.5,29.87,South,186,10.5,10.5,73,0.00,,,0.00,VWS V14.00,2013-07-19 11:22:00,
2013-07-19 07:23:00,81.0,71.1,29.87,South,186,10.5,10.5,72,0.00,,,0.00,VWS V14.00,2013-07-19 11:23:00,
2013-07-19 07:24:00,81.0,71.1,29.87,South,186,10.5,10.5,72,0.00,,,0.00,VWS V14.00,2013-07-19 11:24:00,
2013-07-19 07:25:00,81.0,71.1,29.87,South,188,7.2,10.5,72,0.00,,,0.00,VWS V14.00,2013-07-19 11:25:00,
2013-07-19 07:26:00,81.0,71.1,29.87,SW,227,4.0,4.9,72,0.00,,,0.00,VWS V14.00,2013-07-19 11:26:00,
2013-07-19 07:27:00,81.0,71.1,29.87,SW,228,4.9,5.4,72,0.00,,,0.00,VWS V14.00,2013-07-19 11:27:00,
2013-07-19 07:28:00,81.0,71.1,29.87,SW,227,4.0,4.9,72,0.00,,,0.00,VWS V14.00,2013-07-19 11:28:00,
2013-07-19 07:29:00,81.0,71.1,29.87,SW,214,10.5,10.5,72,0.00,,,0.00,VWS V14.00,2013-07-19 11:29:00,
2013-07-19 07:30:00,81.0,71.1,29.87,SSW,211,8.7,10.5,72,0.00,,,0.00,VWS V14.00,2013-07-19 11:30:00,
2013-07-19 07:31:00,81.1,71.3,29.87,SSW,209,6.3,8.7,72,0.00,,,0.00,VWS V14.00,2013-07-19 11:31:00,
2013-07-19 07:32:00,81.1,71.3,29.87,SSW,211,8.7,8.7,72,0.00,,,0.00,VWS V14.00,2013-07-19 11:32:00,
2013-07-19 07:33:00,81.1,71.3,29.87,SSW,209,6.3,8.7,72,0.00,,,0.00,VWS V14.00,2013-07-19 11:33:00,
2013-07-19 07:34:00,81.1,71.3,29.87,SSW,192,3.6,8.3,72,0.00,,,0.00,VWS V14.00,2013-07-19 11:34:00,
2013-07-19 07:35:00,81.1,71.3,29.87,SSW,192,3.6,3.6,72,0.00,,,0.00,VWS V14.00,2013-07-19 11:35:00,
2013-07-19 07:36:00,81.1,70.8,29.87,SSW,202,5.4,5.4,71,0.00,,,0.00,VWS V14.00,2013-07-19 11:36:00,
2013-07-19 07:37:00,81.1,70.8,29.87,SSW,202,5.4,8.7,71,0.00,,,0.00,VWS V14.00,2013-07-19 11:37:00,
2013-07-19 07:38:00,81.1,70.8,29.87,SSW,202,5.4,5.4,71,0.00,,,0.00,VWS V14.00,2013-07-19 11:38:00,
2013-07-19 07:39:00,81.1,70.8,29.87,SW,220,6.3,6.3,71,0.00,,,0.00,VWS V14.00,2013-07-19 11:39:00,
2013-07-19 07:40:00,81.3,71.0,29.87,West,278,6.3,8.7,71,0.00,,,0.00,VWS V14.00,2013-07-19 11:40:00,
2013-07-19 07:41:00,81.3,71.0,29.87,SW,231,8.1,8.1,71,0.00,,,0.00,VWS V14.00,2013-07-19 11:41:00,
2013-07-19 07:42:00,81.3,71.0,29.87,SW,214,4.0,6.3,71,0.00,,,0.00,VWS V14.00,2013-07-19 11:42:00,
2013-07-19 07:43:00,81.3,71.0,29.87,SW,231,8.1,8.1,71,0.00,,,0.00,VWS V14.00,2013-07-19 11:43:00,
2013-07-19 07:44:00,81.3,71.0,29.87,SW,231,8.1,8.1,71,0.00,,,0.00,VWS V14.00,2013-07-19 11:44:00,
2013-07-19 07:45:00,81.3,71.0,29.87,SW,222,4.0,8.1,71,0.00,,,0.00,VWS V14.00,2013-07-19 11:45:00,
2013-07-19 07:46:00,81.3,71.0,29.87,SW,222,4.0,4.0,71,0.00,,,0.00,VWS V14.00,2013-07-19 11:46:00,
2013-07-19 07:47:00,81.3,71.0,29.84,SSW,211,5.8,5.8,71,0.00,,,0.00,VWS V14.00,2013-07-19 11:47:00,
2013-07-19 07:48:00,81.3,71.0,29.87,SW,229,3.6,3.6,71,0.00,,,0.00,VWS V14.00,2013-07-19 11:48:00,
2013-07-19 07:49:00,81.3,71.0,29.84,SSW,211,5.8,5.8,71,0.00,,,0.00,VWS V14.00,2013-07-19 11:49:00,
2013-07-19 07:50:00,81.3,71.0,29.84,SW,220,6.3,6.3,71,0.00,,,0.00,VWS V14.00,2013-07-19 11:50:00,
2013-07-19 07:51:00,81.3,71.0,29.84,SSW,204,5.8,6.3,71,0.00,,,0.00,VWS V14.00,2013-07-19 11:51:00,
2013-07-19 07:52:00,81.5,71.2,29.84,WSW,252,5.4,5.8,71,0.00,,,0.00,VWS V14.00,2013-07-19 11:52:00,
2013-07-19 07:53:00,81.5,71.2,29.84,SSW,204,5.8,5.8,71,0.00,,,0.00,VWS V14.00,2013-07-19 11:53:00,
2013-07-19 07:54:00,81.5,71.2,29.84,WSW,252,5.4,5.8,71,0.00,,,0.00,VWS V14.00,2013-07-19 11:54:00,
2013-07-19 07:55:00,81.5,71.2,29.84,WSW,250,4.9,5.4,71,0.00,,,0.00,VWS V14.00,2013-07-19 11:55:00,
2013-07-19 07:56:00,81.5,71.2,29.84,WSW,250,4.9,4.9,71,0.00,,,0.00,VWS V14.00,2013-07-19 11:56:00,
2013-07-19 07:57:00,81.7,70.9,29.84,West,264,5.8,5.8,70,0.00,,,0.00,VWS V14.00,2013-07-19 11:57:00,
2013-07-19 07:58:00,81.7,70.9,29.84,West,264,5.8,6.3,70,0.00,,,0.00,VWS V14.00,2013-07-19 11:58:00,
2013-07-19 07:59:00,81.7,70.9,29.84,West,264,5.8,5.8,70,0.00,,,0.00,VWS V14.00,2013-07-19 11:59:00,
2013-07-19 08:00:00,81.7,70.9,29.84,West,264,5.8,5.8,70,0.00,,,0.00,VWS V14.00,2013-07-19 12:00:00,
2013-07-19 08:01:00,81.7,70.9,29.87,West,264,5.8,5.8,70,0.00,,,0.00,VWS V14.00,2013-07-19 12:01:00,
2013-07-19 08:02:00,81.7,70.9,29.87,West,272,7.2,7.2,70,0.00,,,0.00,VWS V14.00,2013-07-19 12:02:00,
2013-07-19 08:03:00,81.7,70.9,29.87,WSW,241,5.4,5.8,70,0.00,,,0.00,VWS V14.00,2013-07-19 12:03:00,
2013-07-19 08:04:00,81.7,70.9,29.87,West,272,7.2,7.2,70,0.00,,,0.00,VWS V14.00,2013-07-19 12:04:00,
2013-07-19 08:05:00,81.7,70.9,29.87,West,272,7.2,7.2,70,0.00,,,0.00,VWS V14.00,2013-07-19 12:05:00,
2013-07-19 08:06:00,81.7,70.9,29.87,West,272,7.2,7.2,70,0.00,,,0.00,VWS V14.00,2013-07-19 12:06:00,
2013-07-19 08:07:00,81.7,70.9,29.87,SSW,212,10.5,10.5,70,0.00,,,0.00,VWS V14.00,2013-07-19 12:07:00,
2013-07-19 08:08:00,81.9,71.1,29.87,SW,226,7.6,7.6,70,0.00,,,0.00,VWS V14.00,2013-07-19 12:08:00,
2013-07-19 08:09:00,81.9,71.1,29.87,SW,223,7.6,8.1,70,0.00,,,0.00,VWS V14.00,2013-07-19 12:09:00,
2013-07-19 08:10:00,81.9,71.1,29.87,SW,226,7.6,7.6,70,0.00,,,0.00,VWS V14.00,2013-07-19 12:10:00,
2013-07-19 08:11:00,81.9,71.1,29.87,SW,226,7.6,7.6,70,0.00,,,0.00,VWS V14.00,2013-07-19 12:11:00,
2013-07-19 08:12:00,81.9,71.1,29.87,SW,226,7.6,7.6,70,0.00,,,0.00,VWS V14.00,2013-07-19 12:12:00,
2013-07-19 08:13:00,82.0,70.9,29.87,SSW,206,7.2,7.2,69,0.00,,,0.00,VWS V14.00,2013-07-19 12:13:00,
2013-07-19 08:14:00,81.9,71.1,29.87,SSW,206,7.2,7.6,70,0.00,,,0.00,VWS V14.00,2013-07-19 12:14:00,
2013-07-19 08:15:00,82.0,70.9,29.87,SSW,206,7.2,7.2,69,0.00,,,0.00,VWS V14.00,2013-07-19 12:15:00,
2013-07-19 08:16:00,82.0,70.9,29.87,WNW,303,8.1,8.1,69,0.00,,,0.00,VWS V14.00,2013-07-19 12:16:00,
2013-07-19 08:17:00,82.0,70.9,29.87,SSW,197,5.4,8.1,69,0.00,,,0.00,VWS V14.00,2013-07-19 12:17:00,
2013-07-19 08:18:00,82.2,71.0,29.87,SSW,210,7.6,7.6,69,0.00,,,0.00,VWS V14.00,2013-07-19 12:18:00,
2013-07-19 08:19:00,82.2,71.0,29.87,SSW,210,7.6,7.6,69,0.00,,,0.00,VWS V14.00,2013-07-19 12:19:00,
2013-07-19 08:20:00,82.2,71.0,29.87,SSW,210,7.6,7.6,69,0.00,,,0.00,VWS V14.00,2013-07-19 12:20:00,
2013-07-19 08:21:00,82.2,71.0,29.87,SW,219,7.6,7.6,69,0.00,,,0.00,VWS V14.00,2013-07-19 12:21:00,
2013-07-19 08:22:00,82.2,71.0,29.87,WSW,246,6.3,7.6,69,0.00,,,0.00,VWS V14.00,2013-07-19 12:22:00,
2013-07-19 08:23:00,82.2,71.0,29.87,SW,224,8.1,8.1,69,0.00,,,0.00,VWS V14.00,2013-07-19 12:23:00,
2013-07-19 08:24:00,82.2,71.0,29.87,WSW,246,6.3,6.3,69,0.00,,,0.00,VWS V14.00,2013-07-19 12:24:00,
2013-07-19 08:25:00,82.2,71.0,29.87,SW,224,8.1,10.1,69,0.00,,,0.00,VWS V14.00,2013-07-19 12:25:00,
2013-07-19 08:26:00,82.2,71.0,29.87,SW,224,8.1,8.1,69,0.00,,,0.00,VWS V14.00,2013-07-19 12:26:00,
2013-07-19 08:27:00,82.4,70.8,29.87,South,186,8.3,8.3,68,0.00,,,0.00,VWS V14.00,2013-07-19 12:27:00,
2013-07-19 08:28:00,82.4,70.8,29.87,SW,224,5.8,10.5,68,0.00,,,0.00,VWS V14.00,2013-07-19 12:28:00,
2013-07-19 08:29:00,82.6,71.0,29.87,SW,216,5.8,5.8,68,0.00,,,0.00,VWS V14.00,2013-07-19 12:29:00,
2013-07-19 08:30:00,82.6,71.0,29.87,WSW,238,3.6,6.3,68,0.00,,,0.00,VWS V14.00,2013-07-19 12:30:00,
2013-07-19 08:31:00,82.6,71.0,29.87,SW,216,5.8,5.8,68,0.00,,,0.00,VWS V14.00,2013-07-19 12:31:00,
2013-07-19 08:32:00,82.6,71.0,29.87,SSW,203,5.4,7.6,68,0.00,,,0.00,VWS V14.00,2013-07-19 12:32:00,
2013-07-19 08:33:00,82.6,71.0,29.87,SSW,213,5.4,6.3,68,0.00,,,0.00,VWS V14.00,2013-07-19 12:33:00,
2013-07-19 08:34:00,82.8,71.1,29.87,SSW,213,5.4,5.4,68,0.00,,,0.00,VWS V14.00,2013-07-19 12:34:00,
2013-07-19 08:35:00,82.6,71.0,29.87,SSW,213,5.4,5.4,68,0.00,,,0.00,VWS V14.00,2013-07-19 12:35:00,
2013-07-19 08:36:00,82.8,71.1,29.87,SSW,213,5.4,5.4,68,0.00,,,0.00,VWS V14.00,2013-07-19 12:36:00,
2013-07-19 08:37:00,82.8,71.1,29.87,WSW,239,7.6,7.6,68,0.00,,,0.00,VWS V14.00,2013-07-19 12:37:00,
2013-07-19 08:38:00,82.8,71.1,29.87,SW,228,4.0,7.6,68,0.00,,,0.00,VWS V14.00,2013-07-19 12:38:00,
2013-07-19 08:39:00,82.8,71.1,29.87,West,269,4.9,4.9,68,0.00,,,0.00,VWS V14.00,2013-07-19 12:39:00,
2013-07-19 08:40:00,82.8,70.7,29.87,SSW,203,11.0,11.0,67,0.00,,,0.00,VWS V14.00,2013-07-19 12:40:00,
2013-07-19 08:41:00,82.8,70.7,29.87,SSW,211,10.5,10.5,67,0.00,,,0.00,VWS V14.00,2013-07-19 12:41:00,
2013-07-19 08:42:00,82.8,70.7,29.87,SSW,203,11.0,11.0,67,0.00,,,0.00,VWS V14.00,2013-07-19 12:42:00,
2013-07-19 08:43:00,82.8,70.7,29.87,WSW,256,10.5,11.0,67,0.00,,,0.00,VWS V14.00,2013-07-19 12:43:00,
2013-07-19 08:44:00,82.9,70.9,29.87,WSW,256,10.5,10.5,67,0.00,,,0.00,VWS V14.00,2013-07-19 12:44:00,
2013-07-19 08:45:00,82.9,70.9,29.87,SW,224,8.7,8.7,67,0.00,,,0.00,VWS V14.00,2013-07-19 12:45:00,
2013-07-19 08:46:00,82.9,70.9,29.87,SW,224,8.7,8.7,67,0.00,,,0.00,VWS V14.00,2013-07-19 12:46:00,
2013-07-19 08:47:00,82.9,70.9,29.87,SW,224,8.7,8.7,67,0.00,,,0.00,VWS V14.00,2013-07-19 12:47:00,
2013-07-19 08:48:00,82.9,70.9,29.87,SSW,204,5.8,8.7,67,0.00,,,0.00,VWS V14.00,2013-07-19 12:48:00,
2013-07-19 08:49:00,83.1,70.6,29.87,SW,233,9.6,9.6,66,0.00,,,0.00,VWS V14.00,2013-07-19 12:49:00,
2013-07-19 08:50:00,83.1,71.0,29.87,SSW,200,6.3,6.3,67,0.00,,,0.00,VWS V14.00,2013-07-19 12:50:00,
2013-07-19 08:51:00,83.1,70.6,29.87,West,271,5.8,5.8,66,0.00,,,0.00,VWS V14.00,2013-07-19 12:51:00,
2013-07-19 08:52:00,83.1,71.0,29.87,SSW,200,6.3,6.3,67,0.00,,,0.00,VWS V14.00,2013-07-19 12:52:00,
2013-07-19 08:53:00,83.1,71.0,29.87,WSW,250,7.6,7.6,67,0.00,,,0.00,VWS V14.00,2013-07-19 12:53:00,
2013-07-19 08:54:00,83.1,71.0,29.87,WSW,250,7.6,7.6,67,0.00,,,0.00,VWS V14.00,2013-07-19 12:54:00,
2013-07-19 08:55:00,83.3,71.2,29.87,South,185,8.3,8.3,67,0.00,,,0.00,VWS V14.00,2013-07-19 12:55:00,
2013-07-19 08:56:00,83.3,70.8,29.87,WSW,250,4.0,8.7,66,0.00,,,0.00,VWS V14.00,2013-07-19 12:56:00,
2013-07-19 08:57:00,83.3,70.8,29.87,SW,218,8.7,8.7,66,0.00,,,0.00,VWS V14.00,2013-07-19 12:57:00,
2013-07-19 08:58:00,83.3,70.8,29.87,WSW,250,4.0,8.7,66,0.00,,,0.00,VWS V14.00,2013-07-19 12:58:00,
2013-07-19 08:59:00,83.3,70.8,29.87,WSW,250,4.0,4.0,66,0.00,,,0.00,VWS V14.00,2013-07-19 12:59:00,
2013-07-19 09:00:00,83.3,70.8,29.87,SW,226,5.4,8.1,66,0.00,,,0.00,VWS V14.00,2013-07-19 13:00:00,
2013-07-19 09:01:00,83.5,70.9,29.87,SSW,212,5.8,5.8,66,0.00,,,0.00,VWS V14.00,2013-07-19 13:01:00,
2013-07-19 09:02:00,83.5,70.9,29.87,SSW,200,8.7,11.0,66,0.00,,,0.00,VWS V14.00,2013-07-19 13:02:00,
2013-07-19 09:03:00,83.5,70.9,29.87,SW,224,11.0,11.0,66,0.00,,,0.00,VWS V14.00,2013-07-19 13:03:00,
2013-07-19 09:04:00,83.5,70.9,29.87,SSW,200,8.7,11.0,66,0.00,,,0.00,VWS V14.00,2013-07-19 13:04:00,
2013-07-19 09:05:00,83.5,70.9,29.87,SSW,208,5.8,11.0,66,0.00,,,0.00,VWS V14.00,2013-07-19 13:05:00,
2013-07-19 09:06:00,83.5,70.9,29.87,SSW,208,5.8,5.8,66,0.00,,,0.00,VWS V14.00,2013-07-19 13:06:00,
2013-07-19 09:07:00,83.7,71.1,29.87,WSW,255,4.0,4.0,66,0.00,,,0.00,VWS V14.00,2013-07-19 13:07:00,
2013-07-19 09:08:00,83.7,71.1,29.87,WSW,255,4.0,4.0,66,0.00,,,0.00,VWS V14.00,2013-07-19 13:08:00,
2013-07-19 09:09:00,83.7,71.1,29.87,WSW,255,4.0,4.0,66,0.00,,,0.00,VWS V14.00,2013-07-19 13:09:00,
2013-07-19 09:10:00,83.7,71.1,29.87,WSW,255,4.0,4.0,66,0.00,,,0.00,VWS V14.00,2013-07-19 13:10:00,
2013-07-19 09:11:00,83.7,70.7,29.87,SW,218,13.2,13.2,65,0.00,,,0.00,VWS V14.00,2013-07-19 13:11:00,
2013-07-19 09:12:00,83.7,70.7,29.87,SW,222,7.6,13.2,65,0.00,,,0.00,VWS V14.00,2013-07-19 13:12:00,
2013-07-19 09:13:00,83.8,70.4,29.87,South,172,7.2,7.2,64,0.00,,,0.00,VWS V14.00,2013-07-19 13:13:00,
2013-07-19 09:14:00,83.7,70.7,29.87,South,172,7.2,8.1,65,0.00,,,0.00,VWS V14.00,2013-07-19 13:14:00,
2013-07-19 09:15:00,83.8,70.4,29.87,South,172,7.2,7.2,64,0.00,,,0.00,VWS V14.00,2013-07-19 13:15:00,
2013-07-19 09:16:00,83.8,70.4,29.87,South,172,7.2,7.2,64,0.00,,,0.00,VWS V14.00,2013-07-19 13:16:00,
2013-07-19 09:17:00,83.8,70.4,29.87,South,172,7.2,7.2,64,0.00,,,0.00,VWS V14.00,2013-07-19 13:17:00,
2013-07-19 09:18:00,83.8,70.4,29.87,SSW,210,8.7,8.7,64,0.00,,,0.00,VWS V14.00,2013-07-19 13:18:00,
2013-07-19 09:19:00,83.8,70.4,29.87,South,172,7.2,7.2,64,0.00,,,0.00,VWS V14.00,2013-07-19 13:19:00,
2013-07-19 09:20:00,83.8,70.4,29.87,SSW,210,8.7,8.7,64,0.00,,,0.00,VWS V14.00,2013-07-19 13:20:00,
2013-07-19 09:21:00,83.8,69.9,29.87,West,267,10.1,10.1,63,0.00,,,0.00,VWS V14.00,2013-07-19 13:21:00,
2013-07-19 09:22:00,83.8,69.9,29.87,SW,221,7.6,10.5,63,0.00,,,0.00,VWS V14.00,2013-07-19 13:22:00,
2013-07-19 09:23:00,83.8,69.9,29.87,SSW,207,8.7,8.7,63,0.00,,,0.00,VWS V14.00,2013-07-19 13:23:00,
2013-07-19 09:24:00,83.8,69.9,29.87,SSW,207,8.7,8.7,63,0.00,,,0.00,VWS V14.00,2013-07-19 13:24:00,
2013-07-19 09:25:00,83.8,69.9,29.87,SSW,207,8.7,8.7,63,0.00,,,0.00,VWS V14.00,2013-07-19 13:25:00,
2013-07-19 09:26:00,83.8,69.9,29.87,West,281,4.0,4.0,63,0.00,,,0.00,VWS V14.00,2013-07-19 13:26:00,
2013-07-19 09:27:00,83.8,69.9,29.87,West,281,4.0,9.6,63,0.00,,,0.00,VWS V14.00,2013-07-19 13:27:00,
2013-07-19 09:28:00,83.8,69.9,29.87,West,281,4.0,4.0,63,0.00,,,0.00,VWS V14.00,2013-07-19 13:28:00,
2013-07-19 09:29:00,84.2,69.8,29.87,West,281,4.0,4.0,62,0.00,,,0.00,VWS V14.00,2013-07-19 13:29:00,
2013-07-19 09:30:00,84.2,69.8,29.87,WSW,237,8.3,8.3,62,0.00,,,0.00,VWS V14.00,2013-07-19 13:30:00,
2013-07-19 09:31:00,84.2,69.3,29.87,SSW,206,6.3,8.3,61,0.00,,,0.00,VWS V14.00,2013-07-19 13:31:00,
2013-07-19 09:32:00,84.2,69.8,29.87,SSE,155,6.3,8.7,62,0.00,,,0.00,VWS V14.00,2013-07-19 13:32:00,
2013-07-19 09:33:00,84.2,69.8,29.87,SW,226,8.7,8.7,62,0.00,,,0.00,VWS V14.00,2013-07-19 13:33:00,
2013-07-19 09:34:00,84.2,69.8,29.87,SSE,155,6.3,8.7,62,0.00,,,0.00,VWS V14.00,2013-07-19 13:34:00,
2013-07-19 09:35:00,84.2,69.8,29.87,SSW,206,8.1,8.1,62,0.00,,,0.00,VWS V14.00,2013-07-19 13:35:00,
2013-07-19 09:36:00,84.2,69.8,29.87,SW,225,10.5,10.5,62,0.00,,,0.00,VWS V14.00,2013-07-19 13:36:00,
2013-07-19 09:37:00,84.4,69.9,29.87,SW,218,7.6,7.6,62,0.00,,,0.00,VWS V14.00,2013-07-19 13:37:00,
2013-07-19 09:38:00,84.4,69.9,29.87,SW,218,7.6,10.5,62,0.00,,,0.00,VWS V14.00,2013-07-19 13:38:00,
2013-07-19 09:39:00,84.4,69.9,29.87,SW,218,7.6,7.6,62,0.00,,,0.00,VWS V14.00,2013-07-19 13:39:00,
2013-07-19 09:40:00,84.4,69.9,29.87,SW,218,7.6,7.6,62,0.00,,,0.00,VWS V14.00,2013-07-19 13:40:00,
2013-07-19 09:41:00,84.6,70.1,29.87,SW,227,8.1,8.1,62,0.00,,,0.00,VWS V14.00,2013-07-19 13:41:00,
2013-07-19 09:42:00,84.7,69.8,29.87,SW,227,8.1,8.1,61,0.00,,,0.00,VWS V14.00,2013-07-19 13:42:00,
2013-07-19 09:43:00,84.7,69.8,29.87,SW,227,8.1,8.1,61,0.00,,,0.00,VWS V14.00,2013-07-19 13:43:00,
2013-07-19 09:44:00,84.7,69.8,29.87,SW,227,8.1,8.1,61,0.00,,,0.00,VWS V14.00,2013-07-19 13:44:00,
2013-07-19 09:45:00,84.7,69.8,29.87,SSW,201,8.7,8.7,61,0.00,,,0.00,VWS V14.00,2013-07-19 13:45:00,
2013-07-19 09:46:00,84.7,69.3,29.87,SW,227,12.8,12.8,60,0.00,,,0.00,VWS V14.00,2013-07-19 13:46:00,
2013-07-19 09:47:00,84.7,69.3,29.87,SW,229,8.3,12.8,60,0.00,,,0.00,VWS V14.00,2013-07-19 13:47:00,
2013-07-19 09:48:00,84.7,69.3,29.87,WSW,238,5.4,12.3,60,0.00,,,0.00,VWS V14.00,2013-07-19 13:48:00,
2013-07-19 09:49:00,84.7,69.3,29.87,SW,222,12.3,12.3,60,0.00,,,0.00,VWS V14.00,2013-07-19 13:49:00,
2013-07-19 09:50:00,84.7,69.3,29.87,WSW,238,5.4,12.3,60,0.00,,,0.00,VWS V14.00,2013-07-19 13:50:00,
2013-07-19 09:51:00,84.9,69.5,29.87,SW,230,5.8,5.8,60,0.00,,,0.00,VWS V14.00,2013-07-19 13:51:00,
2013-07-19 09:52:00,84.9,69.0,29.87,SSW,208,8.7,8.7,59,0.00,,,0.00,VWS V14.00,2013-07-19 13:52:00,
2013-07-19 09:53:00,85.1,69.7,29.87,West,279,10.1,10.1,60,0.00,,,0.00,VWS V14.00,2013-07-19 13:53:00,
2013-07-19 09:54:00,84.9,69.5,29.87,West,279,10.1,10.1,60,0.00,,,0.00,VWS V14.00,2013-07-19 13:54:00,
2013-07-19 09:55:00,85.1,69.7,29.87,West,279,10.1,10.1,60,0.00,,,0.00,VWS V14.00,2013-07-19 13:55:00,
2013-07-19 09:56:00,85.1,69.7,29.87,West,279,10.1,10.1,60,0.00,,,0.00,VWS V14.00,2013-07-19 13:56:00,
2013-07-19 09:57:00,85.1,69.7,29.87,SW,235,4.5,10.1,60,0.00,,,0.00,VWS V14.00,2013-07-19 13:57:00,
2013-07-19 09:58:00,85.5,70.0,29.87,WSW,237,6.7,7.6,60,0.00,,,0.00,VWS V14.00,2013-07-19 13:58:00,
2013-07-19 09:59:00,85.1,69.7,29.87,West,271,5.8,6.3,60,0.00,,,0.00,VWS V14.00,2013-07-19 13:59:00,
2013-07-19 10:00:00,85.5,70.0,29.87,SW,234,7.6,10.1,60,0.00,,,0.00,VWS V14.00,2013-07-19 14:00:00,
2013-07-19 10:01:00,85.5,70.0,29.87,WSW,237,6.7,7.6,60,0.00,,,0.00,VWS V14.00,2013-07-19 14:01:00,
2013-07-19 10:02:00,85.5,70.0,29.87,SW,215,5.8,6.7,60,0.00,,,0.00,VWS V14.00,2013-07-19 14:02:00,
2013-07-19 10:03:00,85.8,69.3,29.87,WSW,241,4.0,8.1,58,0.00,,,0.00,VWS V14.00,2013-07-19 14:03:00,
2013-07-19 10:04:00,85.6,69.7,29.87,WSW,247,6.3,12.8,59,0.00,,,0.00,VWS V14.00,2013-07-19 14:04:00,
2013-07-19 10:05:00,85.8,69.3,29.87,SW,218,8.1,8.1,58,0.00,,,0.00,VWS V14.00,2013-07-19 14:05:00,
2013-07-19 10:06:00,85.8,69.3,29.87,WSW,241,4.0,8.1,58,0.00,,,0.00,VWS V14.00,2013-07-19 14:06:00,
2013-07-19 10:07:00,85.8,69.3,29.87,WSW,241,4.0,4.0,58,0.00,,,0.00,VWS V14.00,2013-07-19 14:07:00,
2013-07-19 10:08:00,85.8,69.3,29.87,WSW,242,4.0,4.0,58,0.00,,,0.00,VWS V14.00,2013-07-19 14:08:00,
2013-07-19 10:09:00,86.0,69.0,29.87,WSW,250,11.0,11.0,57,0.00,,,0.00,VWS V14.00,2013-07-19 14:09:00,
2013-07-19 10:10:00,86.0,69.0,29.87,WSW,242,4.0,4.0,57,0.00,,,0.00,VWS V14.00,2013-07-19 14:10:00,
2013-07-19 10:11:00,86.0,69.0,29.87,WSW,250,11.0,11.0,57,0.00,,,0.00,VWS V14.00,2013-07-19 14:11:00,
2013-07-19 10:12:00,86.0,69.0,29.87,WSW,250,5.8,11.0,57,0.00,,,0.00,VWS V14.00,2013-07-19 14:12:00,
2013-07-19 10:13:00,86.2,69.2,29.87,NW,325,7.6,7.6,57,0.00,,,0.00,VWS V14.00,2013-07-19 14:13:00,
2013-07-19 10:14:00,86.2,69.2,29.87,WSW,258,7.6,10.1,57,0.00,,,0.00,VWS V14.00,2013-07-19 14:14:00,
2013-07-19 10:15:00,86.2,69.2,29.87,WSW,246,8.3,8.3,57,0.00,,,0.00,VWS V14.00,2013-07-19 14:15:00,
2013-07-19 10:16:00,86.2,69.2,29.87,SW,222,10.1,10.1,57,0.00,,,0.00,VWS V14.00,2013-07-19 14:16:00,
2013-07-19 10:17:00,86.2,69.2,29.87,WSW,258,7.6,10.1,57,0.00,,,0.00,VWS V14.00,2013-07-19 14:17:00,
2013-07-19 10:18:00,86.2,68.1,29.87,WSW,257,4.9,7.6,55,0.00,,,0.00,VWS V14.00,2013-07-19 14:18:00,
2013-07-19 10:19:00,86.2,68.1,29.87,SW,221,12.3,12.3,55,0.00,,,0.00,VWS V14.00,2013-07-19 14:19:00,
2013-07-19 10:20:00,86.2,68.1,29.87,SW,221,12.3,12.3,55,0.00,,,0.00,VWS V14.00,2013-07-19 14:20:00,
2013-07-19 10:21:00,86.2,68.1,29.87,SW,221,12.3,12.3,55,0.00,,,0.00,VWS V14.00,2013-07-19 14:21:00,
2013-07-19 10:22:00,86.2,68.1,29.87,SW,221,12.3,12.3,55,0.00,,,0.00,VWS V14.00,2013-07-19 14:22:00,
2013-07-19 10:23:00,86.2,68.1,29.87,SSW,207,11.0,12.8,55,0.00,,,0.00,VWS V14.00,2013-07-19 14:23:00,
2013-07-19 10:24:00,86.2,68.1,29.87,SW,221,8.1,11.0,55,0.00,,,0.00,VWS V14.00,2013-07-19 14:24:00,
2013-07-19 10:25:00,86.4,68.3,29.87,SW,232,5.4,7.2,55,0.00,,,0.00,VWS V14.00,2013-07-19 14:25:00,
2013-07-19 10:26:00,86.4,67.8,29.87,SW,221,8.1,8.1,54,0.00,,,0.00,VWS V14.00,2013-07-19 14:26:00,
2013-07-19 10:27:00,86.4,68.3,29.87,West,264,7.2,8.1,55,0.00,,,0.00,VWS V14.00,2013-07-19 14:27:00,
2013-07-19 10:28:00,86.4,68.3,29.87,SW,232,5.4,7.2,55,0.00,,,0.00,VWS V14.00,2013-07-19 14:28:00,
2013-07-19 10:29:00,86.4,68.3,29.87,SW,232,5.4,5.4,55,0.00,,,0.00,VWS V14.00,2013-07-19 14:29:00,
2013-07-19 10:30:00,86.4,68.3,29.87,SW,232,5.4,5.4,55,0.00,,,0.00,VWS V14.00,2013-07-19 14:30:00,
2013-07-19 10:31:00,86.4,67.8,29.87,SW,214,5.4,5.4,54,0.00,,,0.00,VWS V14.00,2013-07-19 14:31:00,
2013-07-19 10:32:00,86.4,68.3,29.87,SW,214,5.4,5.4,55,0.00,,,0.00,VWS V14.00,2013-07-19 14:32:00,
2013-07-19 10:33:00,86.4,67.8,29.87,SW,214,5.4,5.4,54,0.00,,,0.00,VWS V14.00,2013-07-19 14:33:00,
2013-07-19 10:34:00,86.4,67.8,29.87,SW,214,5.4,5.4,54,0.00,,,0.00,VWS V14.00,2013-07-19 14:34:00,
2013-07-19 10:35:00,86.4,67.2,29.87,SW,226,10.5,10.5,53,0.00,,,0.00,VWS V14.00,2013-07-19 14:35:00,
2013-07-19 10:36:00,86.4,67.2,29.87,SW,226,10.5,10.5,53,0.00,,,0.00,VWS V14.00,2013-07-19 14:36:00,
2013-07-19 10:37:00,86.2,68.1,29.84,WNW,301,4.0,4.0,55,0.00,,,0.00,VWS V14.00,2013-07-19 14:37:00,
2013-07-19 10:38:00,86.4,67.2,29.87,WNW,301,4.0,8.1,53,0.00,,,0.00,VWS V14.00,2013-07-19 14:38:00,
2013-07-19 10:39:00,86.2,68.1,29.84,WNW,301,4.0,4.0,55,0.00,,,0.00,VWS V14.00,2013-07-19 14:39:00,
2013-07-19 10:40:00,86.2,68.1,29.84,WNW,301,4.0,4.0,55,0.00,,,0.00,VWS V14.00,2013-07-19 14:40:00,
2013-07-19 10:41:00,86.2,68.1,29.84,SW,228,10.5,10.5,55,0.00,,,0.00,VWS V14.00,2013-07-19 14:41:00,
2013-07-19 10:42:00,86.2,68.1,29.84,SW,229,8.3,8.7,55,0.00,,,0.00,VWS V14.00,2013-07-19 14:42:00,
2013-07-19 10:43:00,86.2,68.1,29.84,SSW,204,8.1,11.4,55,0.00,,,0.00,VWS V14.00,2013-07-19 14:43:00,
2013-07-19 10:44:00,86.2,68.1,29.84,SW,227,8.1,8.1,55,0.00,,,0.00,VWS V14.00,2013-07-19 14:44:00,
2013-07-19 10:45:00,86.2,68.1,29.84,SW,229,8.3,8.7,55,0.00,,,0.00,VWS V14.00,2013-07-19 14:45:00,
2013-07-19 10:46:00,86.4,68.3,29.84,SW,229,8.3,8.3,55,0.00,,,0.00,VWS V14.00,2013-07-19 14:46:00,
2013-07-19 10:47:00,86.4,68.3,29.84,SSW,209,4.0,8.3,55,0.00,,,0.00,VWS V14.00,2013-07-19 14:47:00,
2013-07-19 10:48:00,86.5,69.0,29.84,South,185,15.0,15.0,56,0.00,,,0.00,VWS V14.00,2013-07-19 14:48:00,
2013-07-19 10:49:00,86.5,69.0,29.84,South,185,15.0,15.0,56,0.00,,,0.00,VWS V14.00,2013-07-19 14:49:00,
2013-07-19 10:50:00,86.5,69.0,29.84,South,185,15.0,15.0,56,0.00,,,0.00,VWS V14.00,2013-07-19 14:50:00,
2013-07-19 10:51:00,86.5,69.0,29.84,SW,235,10.5,15.0,56,0.00,,,0.00,VWS V14.00,2013-07-19 14:51:00,
2013-07-19 10:52:00,86.7,67.6,29.84,SW,235,10.5,10.5,53,0.00,,,0.00,VWS V14.00,2013-07-19 14:52:00,
2013-07-19 10:53:00,86.7,68.1,29.84,South,174,7.6,7.6,54,0.00,,,0.00,VWS V14.00,2013-07-19 14:53:00,
2013-07-19 10:54:00,86.7,68.1,29.84,South,174,7.6,7.6,54,0.00,,,0.00,VWS V14.00,2013-07-19 14:54:00,
2013-07-19 10:55:00,86.7,68.1,29.84,South,174,7.6,7.6,54,0.00,,,0.00,VWS V14.00,2013-07-19 14:55:00,
2013-07-19 10:56:00,86.7,67.6,29.84,South,188,11.4,11.4,53,0.00,,,0.00,VWS V14.00,2013-07-19 14:56:00,
2013-07-19 10:57:00,86.9,67.7,29.84,SW,227,9.6,11.4,53,0.00,,,0.00,VWS V14.00,2013-07-19 14:57:00,
2013-07-19 10:58:00,86.9,68.3,29.84,SSW,209,10.5,10.5,54,0.00,,,0.00,VWS V14.00,2013-07-19 14:58:00,
2013-07-19 10:59:00,86.9,67.7,29.84,SW,227,9.6,9.6,53,0.00,,,0.00,VWS V14.00,2013-07-19 14:59:00,
2013-07-19 11:00:00,86.9,68.3,29.84,SSW,209,10.5,10.5,54,0.00,,,0.00,VWS V14.00,2013-07-19 15:00:00,
2013-07-19 11:01:00,86.9,68.3,29.84,SW,233,8.1,11.0,54,0.00,,,0.00,VWS V14.00,2013-07-19 15:01:00,
2013-07-19 11:02:00,86.7,67.6,29.84,SW,217,8.1,8.1,53,0.00,,,0.00,VWS V14.00,2013-07-19 15:02:00,
2013-07-19 11:03:00,86.7,67.6,29.84,SSW,196,7.6,7.6,53,0.00,,,0.00,VWS V14.00,2013-07-19 15:03:00,
2013-07-19 11:04:00,86.7,67.6,29.84,SW,221,5.8,9.6,53,0.00,,,0.00,VWS V14.00,2013-07-19 15:04:00,
2013-07-19 11:05:00,86.7,67.6,29.84,SSW,196,7.6,7.6,53,0.00,,,0.00,VWS V14.00,2013-07-19 15:05:00,
2013-07-19 11:06:00,86.7,67.6,29.84,West,262,8.7,8.7,53,0.00,,,0.00,VWS V14.00,2013-07-19 15:06:00,
2013-07-19 11:07:00,86.7,67.6,29.84,West,262,8.7,8.7,53,0.00,,,0.00,VWS V14.00,2013-07-19 15:07:00,
2013-07-19 11:08:00,86.7,67.6,29.84,SSW,203,8.7,10.5,53,0.00,,,0.00,VWS V14.00,2013-07-19 15:08:00,
2013-07-19 11:09:00,86.7,67.6,29.84,West,262,8.7,8.7,53,0.00,,,0.00,VWS V14.00,2013-07-19 15:09:00,
2013-07-19 11:10:00,86.7,67.6,29.84,SW,216,10.5,10.5,53,0.00,,,0.00,VWS V14.00,2013-07-19 15:10:00,
2013-07-19 11:11:00,86.7,67.6,29.84,SSW,203,8.7,10.5,53,0.00,,,0.00,VWS V14.00,2013-07-19 15:11:00,
2013-07-19 11:12:00,86.7,67.6,29.84,SSW,203,8.7,8.7,53,0.00,,,0.00,VWS V14.00,2013-07-19 15:12:00,
2013-07-19 11:13:00,86.9,67.7,29.84,South,181,5.4,5.4,53,0.00,,,0.00,VWS V14.00,2013-07-19 15:13:00,
2013-07-19 11:14:00,86.9,67.7,29.84,South,181,5.4,5.8,53,0.00,,,0.00,VWS V14.00,2013-07-19 15:14:00,
2013-07-19 11:15:00,86.9,67.7,29.84,South,181,5.4,5.4,53,0.00,,,0.00,VWS V14.00,2013-07-19 15:15:00,
2013-07-19 11:16:00,86.9,67.7,29.84,South,181,5.4,5.4,53,0.00,,,0.00,VWS V14.00,2013-07-19 15:16:00,
2013-07-19 11:17:00,86.9,67.7,29.84,South,181,5.4,5.4,53,0.00,,,0.00,VWS V14.00,2013-07-19 15:17:00,
2013-07-19 11:18:00,87.1,67.9,29.84,WNW,285,7.6,7.6,53,0.00,,,0.00,VWS V14.00,2013-07-19 15:18:00,
2013-07-19 11:19:00,87.3,68.1,29.84,West,274,5.8,5.8,53,0.00,,,0.00,VWS V14.00,2013-07-19 15:19:00,
2013-07-19 11:20:00,87.1,67.9,29.84,West,274,5.8,10.1,53,0.00,,,0.00,VWS V14.00,2013-07-19 15:20:00,
2013-07-19 11:21:00,87.3,68.1,29.84,West,274,5.8,5.8,53,0.00,,,0.00,VWS V14.00,2013-07-19 15:21:00,
2013-07-19 11:22:00,87.3,67.5,29.84,West,274,5.8,5.8,52,0.00,,,0.00,VWS V14.00,2013-07-19 15:22:00,
2013-07-19 11:23:00,87.3,67.5,29.84,SSW,204,13.2,13.2,52,0.00,,,0.00,VWS V14.00,2013-07-19 15:23:00,
2013-07-19 11:24:00,87.4,67.7,29.84,SW,225,8.3,8.3,52,0.00,,,0.00,VWS V14.00,2013-07-19 15:24:00,
2013-07-19 11:25:00,87.4,67.7,29.84,SW,225,8.3,8.3,52,0.00,,,0.00,VWS V14.00,2013-07-19 15:25:00,
2013-07-19 11:26:00,87.4,67.7,29.84,SW,225,8.3,8.3,52,0.00,,,0.00,VWS V14.00,2013-07-19 15:26:00,
2013-07-19 11:27:00,87.4,67.7,29.84,SW,221,8.1,8.3,52,0.00,,,0.00,VWS V14.00,2013-07-19 15:27:00,
2013-07-19 11:28:00,87.6,67.8,29.84,SW,225,11.9,11.9,52,0.00,,,0.00,VWS V14.00,2013-07-19 15:28:00,
2013-07-19 11:29:00,87.8,67.4,29.84,SW,229,8.1,8.1,51,0.00,,,0.00,VWS V14.00,2013-07-19 15:29:00,
2013-07-19 11:30:00,87.6,67.8,29.84,SSW,196,13.6,13.6,52,0.00,,,0.00,VWS V14.00,2013-07-19 15:30:00,
2013-07-19 11:31:00,87.6,67.3,29.84,SSW,205,7.6,13.6,51,0.00,,,0.00,VWS V14.00,2013-07-19 15:31:00,
2013-07-19 11:32:00,87.8,67.4,29.84,SW,229,8.1,8.1,51,0.00,,,0.00,VWS V14.00,2013-07-19 15:32:00,
2013-07-19 11:33:00,87.8,67.4,29.84,SW,235,4.0,8.1,51,0.00,,,0.00,VWS V14.00,2013-07-19 15:33:00,
2013-07-19 11:34:00,87.8,67.4,29.84,SW,235,4.0,4.0,51,0.00,,,0.00,VWS V14.00,2013-07-19 15:34:00,
2013-07-19 11:35:00,87.8,67.4,29.84,West,272,7.6,8.3,51,0.00,,,0.00,VWS V14.00,2013-07-19 15:35:00,
2013-07-19 11:36:00,87.8,67.4,29.84,SW,226,8.3,11.9,51,0.00,,,0.00,VWS V14.00,2013-07-19 15:36:00,
2013-07-19 11:37:00,87.8,67.4,29.84,West,272,7.6,8.3,51,0.00,,,0.00,VWS V14.00,2013-07-19 15:37:00,
2013-07-19 11:38:00,87.8,67.4,29.84,West,272,7.6,7.6,51,0.00,,,0.00,VWS V14.00,2013-07-19 15:38:00,
2013-07-19 11:39:00,87.6,67.3,29.84,West,272,7.6,7.6,51,0.00,,,0.00,VWS V14.00,2013-07-19 15:39:00,
2013-07-19 11:40:00,87.6,67.3,29.84,NW,310,11.0,11.0,51,0.00,,,0.00,VWS V14.00,2013-07-19 15:40:00,
2013-07-19 11:41:00,87.6,67.3,29.84,SW,228,11.0,11.0,51,0.00,,,0.00,VWS V14.00,2013-07-19 15:41:00,
2013-07-19 11:42:00,87.6,67.3,29.84,NW,310,11.0,11.0,51,0.00,,,0.00,VWS V14.00,2013-07-19 15:42:00,
2013-07-19 11:43:00,87.6,67.3,29.84,NW,310,11.0,11.0,51,0.00,,,0.00,VWS V14.00,2013-07-19 15:43:00,
2013-07-19 11:44:00,87.4,67.7,29.84,NW,315,10.5,11.0,52,0.00,,,0.00,VWS V14.00,2013-07-19 15:44:00,
2013-07-19 11:45:00,87.4,67.1,29.84,WSW,245,10.1,10.1,51,0.00,,,0.00,VWS V14.00,2013-07-19 15:45:00,
2013-07-19 11:46:00,87.4,67.1,29.84,SW,229,11.9,18.8,51,0.00,,,0.00,VWS V14.00,2013-07-19 15:46:00,
2013-07-19 11:47:00,87.4,67.1,29.84,WSW,245,10.1,11.9,51,0.00,,,0.00,VWS V14.00,2013-07-19 15:47:00,
2013-07-19 11:48:00,87.4,67.1,29.84,WSW,245,10.1,10.1,51,0.00,,,0.00,VWS V14.00,2013-07-19 15:48:00,
2013-07-19 11:49:00,87.4,67.1,29.84,SSW,208,10.5,10.5,51,0.00,,,0.00,VWS V14.00,2013-07-19 15:49:00,
2013-07-19 11:50:00,87.4,67.7,29.84,SSW,208,10.5,10.5,52,0.00,,,0.00,VWS V14.00,2013-07-19 15:50:00,
2013-07-19 11:51:00,87.6,67.8,29.84,SW,218,10.5,10.5,52,0.00,,,0.00,VWS V14.00,2013-07-19 15:51:00,
2013-07-19 11:52:00,87.6,67.8,29.84,SW,218,10.5,10.5,52,0.00,,,0.00,VWS V14.00,2013-07-19 15:52:00,
2013-07-19 11:53:00,87.6,67.8,29.84,SW,218,10.5,10.5,52,0.00,,,0.00,VWS V14.00,2013-07-19 15:53:00,
2013-07-19 11:54:00,87.6,67.8,29.84,SW,218,10.5,10.5,52,0.00,,,0.00,VWS V14.00,2013-07-19 15:54:00,
2013-07-19 11:55:00,87.8,68.6,29.84,SSW,211,11.4,11.4,53,0.00,,,0.00,VWS V14.00,2013-07-19 15:55:00,
2013-07-19 11:56:00,88.2,67.8,29.84,West,261,15.4,15.4,51,0.00,,,0.00,VWS V14.00,2013-07-19 15:56:00,
2013-07-19 11:57:00,87.8,68.0,29.84,SSW,211,11.4,11.4,52,0.00,,,0.00,VWS V14.00,2013-07-19 15:57:00,
2013-07-19 11:58:00,88.0,67.6,29.84,West,261,15.4,15.4,51,0.00,,,0.00,VWS V14.00,2013-07-19 15:58:00,
2013-07-19 11:59:00,88.2,67.8,29.84,West,261,15.4,15.4,51,0.00,,,0.00,VWS V14.00,2013-07-19 15:59:00,
2013-07-19 12:00:00,88.2,68.3,29.84,West,261,15.4,15.4,52,0.00,,,0.00,VWS V14.00,2013-07-19 16:00:00,
2013-07-19 12:01:00,88.2,67.8,29.84,WNW,294,6.3,15.4,51,0.00,,,0.00,VWS V14.00,2013-07-19 16:01:00,
2013-07-19 12:02:00,88.2,68.3,29.84,SSW,207,8.3,12.8,52,0.00,,,0.00,VWS V14.00,2013-07-19 16:02:00,
2013-07-19 12:03:00,88.2,68.3,29.84,SW,220,12.8,12.8,52,0.00,,,0.00,VWS V14.00,2013-07-19 16:03:00,
2013-07-19 12:04:00,88.2,68.3,29.84,SSW,207,8.3,12.8,52,0.00,,,0.00,VWS V14.00,2013-07-19 16:04:00,
2013-07-19 12:05:00,88.3,67.4,29.84,SW,230,10.5,10.5,50,0.00,,,0.00,VWS V14.00,2013-07-19 16:05:00,
2013-07-19 12:06:00,88.3,67.4,29.84,SW,226,10.5,10.5,50,0.00,,,0.00,VWS V14.00,2013-07-19 16:06:00,
2013-07-19 12:07:00,88.3,67.4,29.84,SW,221,8.7,10.5,50,0.00,,,0.00,VWS V14.00,2013-07-19 16:07:00,
2013-07-19 12:08:00,88.5,67.5,29.84,SW,231,8.7,8.7,50,0.00,,,0.00,VWS V14.00,2013-07-19 16:08:00,
2013-07-19 12:09:00,88.3,67.4,29.84,ESE,112,7.6,8.7,50,0.00,,,0.00,VWS V14.00,2013-07-19 16:09:00,
2013-07-19 12:10:00,88.5,67.5,29.84,SW,231,8.7,8.7,50,0.00,,,0.00,VWS V14.00,2013-07-19 16:10:00,
2013-07-19 12:11:00,88.5,68.1,29.84,SSW,207,11.0,11.0,51,0.00,,,0.00,VWS V14.00,2013-07-19 16:11:00,
2013-07-19 12:12:00,88.5,68.1,29.84,SW,234,12.8,12.8,51,0.00,,,0.00,VWS V14.00,2013-07-19 16:12:00,
2013-07-19 12:13:00,88.5,67.5,29.84,SSW,213,15.4,16.8,50,0.00,,,0.00,VWS V14.00,2013-07-19 16:13:00,
2013-07-19 12:14:00,88.5,67.5,29.84,SW,234,12.8,12.8,50,0.00,,,0.00,VWS V14.00,2013-07-19 16:14:00,
2013-07-19 12:15:00,88.5,67.5,29.84,SW,234,15.4,15.4,50,0.00,,,0.00,VWS V14.00,2013-07-19 16:15:00,
2013-07-19 12:16:00,88.5,67.5,29.84,SSW,213,15.4,16.8,50,0.00,,,0.00,VWS V14.00,2013-07-19 16:16:00,
2013-07-19 12:17:00,88.7,67.7,29.84,WSW,245,5.4,15.4,50,0.00,,,0.00,VWS V14.00,2013-07-19 16:17:00,
2013-07-19 12:18:00,88.7,67.7,29.84,SW,220,3.6,5.4,50,0.00,,,0.00,VWS V14.00,2013-07-19 16:18:00,
2013-07-19 12:19:00,89.1,68.6,29.84,SW,216,5.8,8.7,51,0.00,,,0.00,VWS V14.00,2013-07-19 16:19:00,
2013-07-19 12:20:00,88.9,68.4,29.84,South,186,8.7,8.7,51,0.00,,,0.00,VWS V14.00,2013-07-19 16:20:00,
2013-07-19 12:21:00,89.1,68.6,29.84,SW,216,5.8,8.7,51,0.00,,,0.00,VWS V14.00,2013-07-19 16:21:00,
2013-07-19 12:22:00,89.1,68.6,29.84,SW,229,14.5,14.5,51,0.00,,,0.00,VWS V14.00,2013-07-19 16:22:00,
2013-07-19 12:23:00,89.1,68.6,29.84,SW,229,14.5,14.5,51,0.00,,,0.00,VWS V14.00,2013-07-19 16:23:00,
2013-07-19 12:24:00,89.4,67.8,29.84,WSW,240,8.3,8.3,49,0.00,,,0.00,VWS V14.00,2013-07-19 16:24:00,
2013-07-19 12:25:00,89.2,67.6,29.84,WSW,240,8.3,14.5,49,0.00,,,0.00,VWS V14.00,2013-07-19 16:25:00,
2013-07-19 12:26:00,89.2,67.6,29.84,WSW,240,8.3,8.3,49,0.00,,,0.00,VWS V14.00,2013-07-19 16:26:00,
2013-07-19 12:27:00,89.4,67.8,29.84,WSW,240,8.3,8.3,49,0.00,,,0.00,VWS V14.00,2013-07-19 16:27:00,
2013-07-19 12:28:00,89.4,67.8,29.84,WSW,240,8.3,8.3,49,0.00,,,0.00,VWS V14.00,2013-07-19 16:28:00,
2013-07-19 12:29:00,89.6,67.3,29.81,WSW,247,15.4,16.3,48,0.00,,,0.00,VWS V14.00,2013-07-19 16:29:00,
2013-07-19 12:30:00,89.6,67.3,29.84,SSW,205,11.0,13.6,48,0.00,,,0.00,VWS V14.00,2013-07-19 16:30:00,
2013-07-19 12:31:00,89.6,67.3,29.84,SSW,211,16.3,16.3,48,0.00,,,0.00,VWS V14.00,2013-07-19 16:31:00,
2013-07-19 12:32:00,89.6,67.3,29.81,WSW,247,15.4,16.3,48,0.00,,,0.00,VWS V14.00,2013-07-19 16:32:00,
2013-07-19 12:33:00,89.6,67.3,29.81,WSW,237,11.0,15.4,48,0.00,,,0.00,VWS V14.00,2013-07-19 16:33:00,
2013-07-19 12:34:00,89.8,66.9,29.81,SSW,207,12.8,12.8,47,0.00,,,0.00,VWS V14.00,2013-07-19 16:34:00,
2013-07-19 12:35:00,89.8,66.9,29.81,SW,230,7.6,7.6,47,0.00,,,0.00,VWS V14.00,2013-07-19 16:35:00,
2013-07-19 12:36:00,89.8,66.9,29.81,South,183,4.0,7.6,47,0.00,,,0.00,VWS V14.00,2013-07-19 16:36:00,
2013-07-19 12:37:00,89.8,66.9,29.81,SSW,207,12.8,12.8,47,0.00,,,0.00,VWS V14.00,2013-07-19 16:37:00,
2013-07-19 12:38:00,89.8,66.9,29.81,SSW,207,12.8,12.8,47,0.00,,,0.00,VWS V14.00,2013-07-19 16:38:00,
2013-07-19 12:39:00,89.8,66.9,29.81,SSW,207,12.8,12.8,47,0.00,,,0.00,VWS V14.00,2013-07-19 16:39:00,
2013-07-19 12:40:00,89.8,66.9,29.81,SW,235,11.0,13.2,47,0.00,,,0.00,VWS V14.00,2013-07-19 16:40:00,
2013-07-19 12:41:00,89.8,66.9,29.81,SSW,209,13.2,13.2,47,0.00,,,0.00,VWS V14.00,2013-07-19 16:41:00,
2013-07-19 12:42:00,89.8,66.9,29.81,SW,235,11.0,13.2,47,0.00,,,0.00,VWS V14.00,2013-07-19 16:42:00,
2013-07-19 12:43:00,90.1,67.2,29.81,SW,235,11.0,11.0,47,0.00,,,0.00,VWS V14.00,2013-07-19 16:43:00,
2013-07-19 12:44:00,90.1,67.2,29.81,WSW,243,6.3,11.0,47,0.00,,,0.00,VWS V14.00,2013-07-19 16:44:00,
2013-07-19 12:45:00,90.3,67.4,29.81,SSW,202,8.3,9.6,47,0.00,,,0.00,VWS V14.00,2013-07-19 16:45:00,
2013-07-19 12:46:00,90.3,67.4,29.81,West,274,9.6,15.0,47,0.00,,,0.00,VWS V14.00,2013-07-19 16:46:00,
2013-07-19 12:47:00,90.3,67.4,29.81,West,274,9.6,9.6,47,0.00,,,0.00,VWS V14.00,2013-07-19 16:47:00,
2013-07-19 12:48:00,90.3,67.4,29.81,SSW,202,8.3,9.6,47,0.00,,,0.00,VWS V14.00,2013-07-19 16:48:00,
2013-07-19 12:49:00,90.3,67.4,29.81,SSW,202,8.3,8.3,47,0.00,,,0.00,VWS V14.00,2013-07-19 16:49:00,
2013-07-19 12:50:00,90.3,67.4,29.81,SW,223,8.1,8.3,47,0.00,,,0.00,VWS V14.00,2013-07-19 16:50:00,
2013-07-19 12:51:00,90.9,66.6,29.81,SW,219,5.8,15.0,45,0.00,,,0.00,VWS V14.00,2013-07-19 16:51:00,
2013-07-19 12:52:00,90.9,66.6,29.81,West,274,15.0,15.4,45,0.00,,,0.00,VWS V14.00,2013-07-19 16:52:00,
2013-07-19 12:53:00,90.9,66.6,29.81,SW,219,5.8,15.0,45,0.00,,,0.00,VWS V14.00,2013-07-19 16:53:00,
2013-07-19 12:54:00,90.9,66.6,29.81,SSW,206,15.4,15.4,45,0.00,,,0.00,VWS V14.00,2013-07-19 16:54:00,
2013-07-19 12:55:00,90.9,66.6,29.81,SW,216,8.1,15.4,45,0.00,,,0.00,VWS V14.00,2013-07-19 16:55:00,
2013-07-19 12:56:00,90.9,66.6,29.81,SW,225,8.1,8.1,45,0.00,,,0.00,VWS V14.00,2013-07-19 16:56:00,
2013-07-19 12:57:00,91.0,66.8,29.81,SSW,195,15.4,15.4,45,0.00,,,0.00,VWS V14.00,2013-07-19 16:57:00,
2013-07-19 12:58:00,91.0,66.8,29.81,SW,225,8.1,8.1,45,0.00,,,0.00,VWS V14.00,2013-07-19 16:58:00,
2013-07-19 12:59:00,91.0,66.8,29.81,SSW,195,15.4,15.4,45,0.00,,,0.00,VWS V14.00,2013-07-19 16:59:00,
2013-07-19 13:00:00,91.0,66.8,29.81,WSW,238,11.0,15.4,45,0.00,,,0.00,VWS V14.00,2013-07-19 17:00:00,
2013-07-19 13:01:00,91.2,66.3,29.81,West,263,10.5,11.0,44,0.00,,,0.00,VWS V14.00,2013-07-19 17:01:00,
2013-07-19 13:02:00,91.2,66.3,29.81,WSW,250,15.4,15.4,44,0.00,,,0.00,VWS V14.00,2013-07-19 17:02:00,
2013-07-19 13:03:00,91.2,66.3,29.81,SW,233,8.1,12.8,44,0.00,,,0.00,VWS V14.00,2013-07-19 17:03:00,
2013-07-19 13:04:00,91.2,66.3,29.81,WSW,250,15.4,15.4,44,0.00,,,0.00,VWS V14.00,2013-07-19 17:04:00,
2013-07-19 13:05:00,91.6,65.9,29.81,SW,230,8.7,15.4,43,0.00,,,0.00,VWS V14.00,2013-07-19 17:05:00,
2013-07-19 13:06:00,91.6,65.9,29.81,SW,219,10.1,12.3,43,0.00,,,0.00,VWS V14.00,2013-07-19 17:06:00,
2013-07-19 13:07:00,91.9,65.6,29.81,SW,234,8.7,8.7,42,0.00,,,0.00,VWS V14.00,2013-07-19 17:07:00,
2013-07-19 13:08:00,91.8,65.4,29.81,South,185,11.9,12.8,42,0.00,,,0.00,VWS V14.00,2013-07-19 17:08:00,
2013-07-19 13:09:00,91.8,65.4,29.81,SW,234,8.7,16.8,42,0.00,,,0.00,VWS V14.00,2013-07-19 17:09:00,
2013-07-19 13:10:00,91.9,65.6,29.81,SW,234,8.7,8.7,42,0.00,,,0.00,VWS V14.00,2013-07-19 17:10:00,
2013-07-19 13:11:00,91.9,65.6,29.81,SW,234,8.7,8.7,42,0.00,,,0.00,VWS V14.00,2013-07-19 17:11:00,
2013-07-19 13:12:00,91.9,65.6,29.81,SW,234,8.7,8.7,42,0.00,,,0.00,VWS V14.00,2013-07-19 17:12:00,
2013-07-19 13:13:00,92.1,65.8,29.81,SSW,199,17.4,17.4,42,0.00,,,0.00,VWS V14.00,2013-07-19 17:13:00,
2013-07-19 13:14:00,92.1,65.8,29.81,SSW,199,17.4,17.4,42,0.00,,,0.00,VWS V14.00,2013-07-19 17:14:00,
2013-07-19 13:15:00,92.1,65.8,29.81,SSW,199,17.4,17.4,42,0.00,,,0.00,VWS V14.00,2013-07-19 17:15:00,
2013-07-19 13:16:00,92.1,65.8,29.81,SW,226,6.3,17.4,42,0.00,,,0.00,VWS V14.00,2013-07-19 17:16:00,
2013-07-19 13:17:00,92.1,65.8,29.81,SW,226,6.3,6.3,42,0.00,,,0.00,VWS V14.00,2013-07-19 17:17:00,
2013-07-19 13:18:00,92.7,65.5,29.81,South,185,7.6,15.0,41,0.00,,,0.00,VWS V14.00,2013-07-19 17:18:00,
2013-07-19 13:19:00,92.5,65.4,29.81,SW,230,15.0,15.9,41,0.00,,,0.00,VWS V14.00,2013-07-19 17:19:00,
2013-07-19 13:20:00,92.7,65.5,29.81,South,185,7.6,15.0,41,0.00,,,0.00,VWS V14.00,2013-07-19 17:20:00,
2013-07-19 13:21:00,92.7,65.5,29.81,South,185,7.6,7.6,41,0.00,,,0.00,VWS V14.00,2013-07-19 17:21:00,
2013-07-19 13:22:00,92.8,65.7,29.81,South,185,7.6,7.6,41,0.00,,,0.00,VWS V14.00,2013-07-19 17:22:00,
2013-07-19 13:23:00,92.8,65.7,29.81,WSW,252,8.3,10.1,41,0.00,,,0.00,VWS V14.00,2013-07-19 17:23:00,
2013-07-19 13:24:00,92.8,65.7,29.81,SW,216,10.1,10.1,41,0.00,,,0.00,VWS V14.00,2013-07-19 17:24:00,
2013-07-19 13:25:00,92.8,65.7,29.81,SW,216,10.1,10.1,41,0.00,,,0.00,VWS V14.00,2013-07-19 17:25:00,
2013-07-19 13:26:00,92.8,65.7,29.81,WSW,252,8.3,10.1,41,0.00,,,0.00,VWS V14.00,2013-07-19 17:26:00,
2013-07-19 13:27:00,92.8,65.7,29.81,WSW,252,8.3,8.3,41,0.00,,,0.00,VWS V14.00,2013-07-19 17:27:00,
2013-07-19 13:28:00,93.2,66.0,29.81,WSW,252,8.3,8.3,41,0.00,,,0.00,VWS V14.00,2013-07-19 17:28:00,
2013-07-19 13:29:00,93.2,66.0,29.78,SW,223,10.5,12.3,41,0.00,,,0.00,VWS V14.00,2013-07-19 17:29:00,
2013-07-19 13:30:00,93.2,66.0,29.81,SSW,211,7.6,15.0,41,0.00,,,0.00,VWS V14.00,2013-07-19 17:30:00,
2013-07-19 13:31:00,93.2,66.0,29.78,SW,223,10.5,12.3,41,0.00,,,0.00,VWS V14.00,2013-07-19 17:31:00,
2013-07-19 13:32:00,93.2,66.0,29.78,East,79,17.0,17.0,41,0.00,,,0.00,VWS V14.00,2013-07-19 17:32:00,
2013-07-19 13:33:00,93.2,66.0,29.78,SW,217,11.0,17.0,41,0.00,,,0.00,VWS V14.00,2013-07-19 17:33:00,
2013-07-19 13:34:00,93.2,66.0,29.78,South,191,11.4,11.4,41,0.00,,,0.00,VWS V14.00,2013-07-19 17:34:00,
2013-07-19 13:35:00,93.4,66.2,29.78,South,173,16.8,16.8,41,0.00,,,0.00,VWS V14.00,2013-07-19 17:35:00,
2013-07-19 13:36:00,93.4,66.2,29.78,South,191,11.4,11.4,41,0.00,,,0.00,VWS V14.00,2013-07-19 17:36:00,
2013-07-19 13:37:00,93.4,66.2,29.78,South,173,16.8,16.8,41,0.00,,,0.00,VWS V14.00,2013-07-19 17:37:00,
2013-07-19 13:38:00,93.4,66.2,29.78,South,173,16.8,16.8,41,0.00,,,0.00,VWS V14.00,2013-07-19 17:38:00,
2013-07-19 13:39:00,93.4,66.2,29.78,SSW,210,25.7,25.7,41,0.00,,,0.00,VWS V14.00,2013-07-19 17:39:00,
2013-07-19 13:40:00,93.4,66.2,29.78,SW,224,13.2,25.7,41,0.00,,,0.00,VWS V14.00,2013-07-19 17:40:00,
2013-07-19 13:41:00,93.7,65.8,29.78,SW,222,13.2,25.5,40,0.00,,,0.00,VWS V14.00,2013-07-19 17:41:00,
2013-07-19 13:42:00,93.6,65.6,29.78,SSW,203,11.0,13.6,40,0.00,,,0.00,VWS V14.00,2013-07-19 17:42:00,
2013-07-19 13:43:00,93.7,65.8,29.78,SW,222,13.2,25.5,40,0.00,,,0.00,VWS V14.00,2013-07-19 17:43:00,
2013-07-19 13:44:00,93.7,65.8,29.78,SW,222,13.2,13.2,40,0.00,,,0.00,VWS V14.00,2013-07-19 17:44:00,
2013-07-19 13:45:00,93.7,65.8,29.78,SW,231,10.5,15.4,40,0.00,,,0.00,VWS V14.00,2013-07-19 17:45:00,
2013-07-19 13:46:00,93.7,65.8,29.78,SW,231,10.5,10.5,40,0.00,,,0.00,VWS V14.00,2013-07-19 17:46:00,
2013-07-19 13:47:00,93.7,66.5,29.78,SW,231,10.5,10.5,41,0.00,,,0.00,VWS V14.00,2013-07-19 17:47:00,
2013-07-19 13:48:00,93.7,66.5,29.78,SW,231,10.5,10.5,41,0.00,,,0.00,VWS V14.00,2013-07-19 17:48:00,
2013-07-19 13:49:00,93.7,66.5,29.78,SW,231,10.5,10.5,41,0.00,,,0.00,VWS V14.00,2013-07-19 17:49:00,
2013-07-19 13:50:00,93.7,65.1,29.78,SW,216,15.0,15.0,39,0.00,,,0.00,VWS V14.00,2013-07-19 17:50:00,
2013-07-19 13:51:00,93.7,65.1,29.78,SW,216,15.0,15.0,39,0.00,,,0.00,VWS V14.00,2013-07-19 17:51:00,
2013-07-19 13:52:00,92.7,64.8,29.78,SW,225,11.0,13.2,40,0.00,,,0.00,VWS V14.00,2013-07-19 17:52:00,
2013-07-19 13:53:00,93.7,65.1,29.78,SW,216,15.0,15.0,39,0.00,,,0.00,VWS V14.00,2013-07-19 17:53:00,
2013-07-19 13:54:00,92.8,65.0,29.78,SW,225,8.7,15.0,40,0.00,,,0.00,VWS V14.00,2013-07-19 17:54:00,
2013-07-19 13:55:00,92.7,64.8,29.78,SW,225,11.0,13.2,40,0.00,,,0.00,VWS V14.00,2013-07-19 17:55:00,
2013-07-19 13:56:00,92.7,64.8,29.78,SW,225,11.0,11.0,40,0.00,,,0.00,VWS V14.00,2013-07-19 17:56:00,
2013-07-19 13:57:00,92.5,64.7,29.78,SW,225,11.0,11.0,40,0.00,,,0.00,VWS V14.00,2013-07-19 17:57:00,
2013-07-19 13:58:00,92.1,65.1,29.78,SSW,210,10.5,11.0,41,0.00,,,0.00,VWS V14.00,2013-07-19 17:58:00,
2013-07-19 13:59:00,92.3,65.2,29.78,SW,225,11.0,11.0,41,0.00,,,0.00,VWS V14.00,2013-07-19 17:59:00,
2013-07-19 14:00:00,92.1,65.1,29.78,SSW,210,10.5,11.0,41,0.00,,,0.00,VWS V14.00,2013-07-19 18:00:00,
2013-07-19 14:01:00,92.1,65.1,29.78,SSW,210,10.5,10.5,41,0.00,,,0.00,VWS V14.00,2013-07-19 18:01:00,
2013-07-19 14:02:00,92.1,65.1,29.78,West,281,10.1,10.5,41,0.00,,,0.00,VWS V14.00,2013-07-19 18:02:00,
2013-07-19 14:03:00,91.9,64.9,29.78,WSW,241,5.4,5.4,41,0.00,,,0.00,VWS V14.00,2013-07-19 18:03:00,
2013-07-19 14:04:00,91.9,64.9,29.78,South,179,3.6,10.1,41,0.00,,,0.00,VWS V14.00,2013-07-19 18:04:00,
2013-07-19 14:05:00,91.9,64.9,29.78,WSW,241,5.4,8.3,41,0.00,,,0.00,VWS V14.00,2013-07-19 18:05:00,
2013-07-19 14:06:00,91.9,64.9,29.78,WSW,241,5.4,5.4,41,0.00,,,0.00,VWS V14.00,2013-07-19 18:06:00,
2013-07-19 14:07:00,91.8,64.7,29.78,SW,221,9.2,9.2,41,0.00,,,0.00,VWS V14.00,2013-07-19 18:07:00,
2013-07-19 14:08:00,91.8,64.7,29.78,SW,225,8.1,11.4,41,0.00,,,0.00,VWS V14.00,2013-07-19 18:08:00,
2013-07-19 14:09:00,91.8,64.7,29.78,SSW,209,8.1,8.1,41,0.00,,,0.00,VWS V14.00,2013-07-19 18:09:00,
2013-07-19 14:10:00,91.8,64.7,29.78,SSW,209,8.1,8.1,41,0.00,,,0.00,VWS V14.00,2013-07-19 18:10:00,
2013-07-19 14:11:00,91.8,64.7,29.78,SW,225,8.1,11.4,41,0.00,,,0.00,VWS V14.00,2013-07-19 18:11:00,
2013-07-19 14:12:00,91.9,64.9,29.78,SSW,210,6.3,8.1,41,0.00,,,0.00,VWS V14.00,2013-07-19 18:12:00,
2013-07-19 14:13:00,91.9,64.9,29.78,SSE,157,9.6,9.6,41,0.00,,,0.00,VWS V14.00,2013-07-19 18:13:00,
2013-07-19 14:14:00,91.9,64.9,29.78,SSW,213,11.0,11.0,41,0.00,,,0.00,VWS V14.00,2013-07-19 18:14:00,
2013-07-19 14:15:00,91.9,64.9,29.78,SSW,213,11.0,11.0,41,0.00,,,0.00,VWS V14.00,2013-07-19 18:15:00,
2013-07-19 14:16:00,91.9,64.9,29.78,SSW,213,11.0,11.0,41,0.00,,,0.00,VWS V14.00,2013-07-19 18:16:00,
2013-07-19 14:17:00,92.7,66.2,29.78,SW,214,15.0,15.0,42,0.00,,,0.00,VWS V14.00,2013-07-19 18:17:00,
2013-07-19 14:18:00,92.7,66.2,29.78,SSW,198,10.1,15.0,42,0.00,,,0.00,VWS V14.00,2013-07-19 18:18:00,
2013-07-19 14:19:00,93.4,65.5,29.78,SW,218,8.3,8.3,40,0.00,,,0.00,VWS V14.00,2013-07-19 18:19:00,
2013-07-19 14:20:00,93.4,65.5,29.78,SSW,206,8.7,8.7,40,0.00,,,0.00,VWS V14.00,2013-07-19 18:20:00,
2013-07-19 14:21:00,93.4,65.5,29.78,SW,218,8.3,8.7,40,0.00,,,0.00,VWS V14.00,2013-07-19 18:21:00,
2013-07-19 14:22:00,93.4,65.5,29.78,SW,218,8.3,8.3,40,0.00,,,0.00,VWS V14.00,2013-07-19 18:22:00,
2013-07-19 14:23:00,93.4,65.5,29.78,SW,220,8.7,8.7,40,0.00,,,0.00,VWS V14.00,2013-07-19 18:23:00,
2013-07-19 14:24:00,93.6,64.2,29.78,SSW,201,8.1,8.7,38,0.00,,,0.00,VWS V14.00,2013-07-19 18:24:00,
2013-07-19 14:25:00,93.4,64.7,29.78,SSW,212,5.8,8.1,39,0.00,,,0.00,VWS V14.00,2013-07-19 18:25:00,
2013-07-19 14:26:00,93.4,64.7,29.78,SSW,201,8.1,8.1,39,0.00,,,0.00,VWS V14.00,2013-07-19 18:26:00,
2013-07-19 14:27:00,93.4,64.7,29.78,SSW,212,5.8,8.1,39,0.00,,,0.00,VWS V14.00,2013-07-19 18:27:00,
2013-07-19 14:28:00,93.4,64.7,29.78,SSW,195,13.2,13.2,39,0.00,,,0.00,VWS V14.00,2013-07-19 18:28:00,
2013-07-19 14:29:00,93.2,64.6,29.78,SSW,195,13.2,13.2,39,0.00,,,0.00,VWS V14.00,2013-07-19 18:29:00,
2013-07-19 14:30:00,92.8,65.0,29.78,SSW,203,9.6,9.6,40,0.00,,,0.00,VWS V14.00,2013-07-19 18:30:00,
2013-07-19 14:31:00,93.0,65.2,29.78,SW,224,8.1,15.9,40,0.00,,,0.00,VWS V14.00,2013-07-19 18:31:00,
2013-07-19 14:32:00,92.8,65.0,29.78,SSW,203,9.6,9.6,40,0.00,,,0.00,VWS V14.00,2013-07-19 18:32:00,
2013-07-19 14:33:00,92.8,65.0,29.78,SW,230,8.3,10.1,40,0.00,,,0.00,VWS V14.00,2013-07-19 18:33:00,
2013-07-19 14:34:00,92.8,65.0,29.78,SW,230,8.3,8.3,40,0.00,,,0.00,VWS V14.00,2013-07-19 18:34:00,
2013-07-19 14:35:00,92.8,65.0,29.78,SW,222,5.8,8.3,40,0.00,,,0.00,VWS V14.00,2013-07-19 18:35:00,
2013-07-19 14:36:00,92.3,65.2,29.78,SW,218,6.7,6.7,41,0.00,,,0.00,VWS V14.00,2013-07-19 18:36:00,
2013-07-19 14:37:00,92.8,65.0,29.78,SW,218,6.7,15.0,40,0.00,,,0.00,VWS V14.00,2013-07-19 18:37:00,
2013-07-19 14:38:00,92.3,65.2,29.78,SW,218,6.7,6.7,41,0.00,,,0.00,VWS V14.00,2013-07-19 18:38:00,
2013-07-19 14:39:00,92.3,65.2,29.78,SW,222,12.8,12.8,41,0.00,,,0.00,VWS V14.00,2013-07-19 18:39:00,
2013-07-19 14:40:00,92.3,65.2,29.78,SW,222,12.8,12.8,41,0.00,,,0.00,VWS V14.00,2013-07-19 18:40:00,
2013-07-19 14:41:00,91.8,64.7,29.78,SW,217,7.6,16.3,41,0.00,,,0.00,VWS V14.00,2013-07-19 18:41:00,
2013-07-19 14:42:00,92.3,65.2,29.78,SW,227,8.1,8.1,41,0.00,,,0.00,VWS V14.00,2013-07-19 18:42:00,
2013-07-19 14:43:00,91.8,64.0,29.78,SSW,200,5.8,8.1,40,0.00,,,0.00,VWS V14.00,2013-07-19 18:43:00,
2013-07-19 14:44:00,91.8,64.7,29.78,SW,217,7.6,16.3,41,0.00,,,0.00,VWS V14.00,2013-07-19 18:44:00,
2013-07-19 14:45:00,91.6,64.6,29.78,SW,217,7.6,7.6,41,0.00,,,0.00,VWS V14.00,2013-07-19 18:45:00,
2013-07-19 14:46:00,91.2,64.2,29.78,SSW,201,8.3,8.3,41,0.00,,,0.00,VWS V14.00,2013-07-19 18:46:00,
2013-07-19 14:47:00,91.4,64.4,29.78,SSW,209,13.2,13.2,41,0.00,,,0.00,VWS V14.00,2013-07-19 18:47:00,
2013-07-19 14:48:00,91.4,64.4,29.78,SW,234,8.3,13.2,41,0.00,,,0.00,VWS V14.00,2013-07-19 18:48:00,
2013-07-19 14:49:00,91.2,64.2,29.78,SSW,201,8.3,8.3,41,0.00,,,0.00,VWS V14.00,2013-07-19 18:49:00,
2013-07-19 14:50:00,91.2,64.2,29.78,SSW,201,8.3,8.3,41,0.00,,,0.00,VWS V14.00,2013-07-19 18:50:00,
2013-07-19 14:51:00,91.0,64.8,29.78,SW,216,15.0,15.0,42,0.00,,,0.00,VWS V14.00,2013-07-19 18:51:00,
2013-07-19 14:52:00,91.0,64.8,29.78,WSW,244,8.7,8.7,42,0.00,,,0.00,VWS V14.00,2013-07-19 18:52:00,
2013-07-19 14:53:00,91.0,64.8,29.78,SW,226,13.2,13.2,42,0.00,,,0.00,VWS V14.00,2013-07-19 18:53:00,
2013-07-19 14:54:00,91.0,64.8,29.78,SW,216,15.0,15.0,42,0.00,,,0.00,VWS V14.00,2013-07-19 18:54:00,
2013-07-19 14:55:00,91.0,64.8,29.78,SW,216,15.0,15.0,42,0.00,,,0.00,VWS V14.00,2013-07-19 18:55:00,
2013-07-19 14:56:00,91.0,64.8,29.78,WSW,247,6.7,15.0,42,0.00,,,0.00,VWS V14.00,2013-07-19 18:56:00,
2013-07-19 14:57:00,90.9,64.6,29.78,NNW,340,6.3,6.7,42,0.00,,,0.00,VWS V14.00,2013-07-19 18:57:00,
2013-07-19 14:58:00,90.9,64.6,29.78,WSW,247,6.7,6.7,42,0.00,,,0.00,VWS V14.00,2013-07-19 18:58:00,
2013-07-19 14:59:00,90.9,64.6,29.78,NNW,340,6.3,6.7,42,0.00,,,0.00,VWS V14.00,2013-07-19 18:59:00,
2013-07-19 15:00:00,90.9,64.6,29.78,SSW,208,10.5,10.5,42,0.00,,,0.00,VWS V14.00,2013-07-19 19:00:00,
2013-07-19 15:01:00,90.9,64.6,29.78,NW,305,4.0,10.5,42,0.00,,,0.00,VWS V14.00,2013-07-19 19:01:00,
2013-07-19 15:02:00,90.9,64.6,29.78,WNW,296,8.1,8.1,42,0.00,,,0.00,VWS V14.00,2013-07-19 19:02:00,
2013-07-19 15:03:00,90.9,64.6,29.78,WSW,249,11.0,11.0,42,0.00,,,0.00,VWS V14.00,2013-07-19 19:03:00,
2013-07-19 15:04:00,90.9,64.6,29.78,WSW,258,8.7,8.7,42,0.00,,,0.00,VWS V14.00,2013-07-19 19:04:00,
2013-07-19 15:05:00,90.9,64.6,29.78,WSW,249,11.0,11.0,42,0.00,,,0.00,VWS V14.00,2013-07-19 19:05:00,
2013-07-19 15:06:00,90.5,63.6,29.78,SW,229,10.1,11.0,41,0.00,,,0.00,VWS V14.00,2013-07-19 19:06:00,
2013-07-19 15:07:00,90.5,63.6,29.78,West,274,8.1,10.1,41,0.00,,,0.00,VWS V14.00,2013-07-19 19:07:00,
2013-07-19 15:08:00,90.3,64.1,29.78,South,178,8.1,8.1,42,0.00,,,0.00,VWS V14.00,2013-07-19 19:08:00,
2013-07-19 15:09:00,90.5,63.6,29.78,NW,312,5.4,6.3,41,0.00,,,0.00,VWS V14.00,2013-07-19 19:09:00,
2013-07-19 15:10:00,90.3,64.1,29.78,South,178,8.1,8.1,42,0.00,,,0.00,VWS V14.00,2013-07-19 19:10:00,
2013-07-19 15:11:00,90.3,64.1,29.78,South,178,8.1,8.1,42,0.00,,,0.00,VWS V14.00,2013-07-19 19:11:00,
2013-07-19 15:12:00,90.3,64.1,29.78,SW,225,5.8,8.1,42,0.00,,,0.00,VWS V14.00,2013-07-19 19:12:00,
2013-07-19 15:13:00,90.5,64.3,29.78,SW,231,7.2,11.0,42,0.00,,,0.00,VWS V14.00,2013-07-19 19:13:00,
2013-07-19 15:14:00,90.5,64.3,29.78,SSW,203,8.3,8.3,42,0.00,,,0.00,VWS V14.00,2013-07-19 19:14:00,
2013-07-19 15:15:00,90.5,64.3,29.78,SSW,209,5.4,7.2,42,0.00,,,0.00,VWS V14.00,2013-07-19 19:15:00,
2013-07-19 15:16:00,90.5,64.3,29.78,SSW,203,8.3,8.3,42,0.00,,,0.00,VWS V14.00,2013-07-19 19:16:00,
2013-07-19 15:17:00,90.5,64.3,29.78,SSW,203,8.3,8.3,42,0.00,,,0.00,VWS V14.00,2013-07-19 19:17:00,
2013-07-19 15:18:00,90.9,65.3,29.78,SW,225,10.5,12.3,43,0.00,,,0.00,VWS V14.00,2013-07-19 19:18:00,
2013-07-19 15:19:00,91.0,65.4,29.78,SW,214,12.3,12.3,43,0.00,,,0.00,VWS V14.00,2013-07-19 19:19:00,
2013-07-19 15:20:00,91.0,65.5,29.78,SW,214,12.3,12.3,43,0.00,,,0.00,VWS V14.00,2013-07-19 19:20:00,
2013-07-19 15:21:00,91.0,65.5,29.78,SW,214,12.3,12.3,43,0.00,,,0.00,VWS V14.00,2013-07-19 19:21:00,
2013-07-19 15:22:00,91.2,64.9,29.78,SW,214,12.3,12.3,42,0.00,,,0.00,VWS V14.00,2013-07-19 19:22:00,
2013-07-19 15:23:00,91.4,65.1,29.78,SW,214,12.3,12.3,42,0.00,,,0.00,VWS V14.00,2013-07-19 19:23:00,
2013-07-19 15:24:00,91.4,65.1,29.78,SSW,201,7.6,7.6,42,0.00,,,0.00,VWS V14.00,2013-07-19 19:24:00,
2013-07-19 15:25:00,91.4,65.1,29.78,SW,214,12.3,12.3,42,0.00,,,0.00,VWS V14.00,2013-07-19 19:25:00,
2013-07-19 15:26:00,91.4,65.1,29.78,SSW,201,7.6,12.3,42,0.00,,,0.00,VWS V14.00,2013-07-19 19:26:00,
2013-07-19 15:27:00,92.1,65.1,29.78,SW,224,17.4,17.4,41,0.00,,,0.00,VWS V14.00,2013-07-19 19:27:00,
2013-07-19 15:28:00,92.1,65.1,29.78,South,185,8.3,17.4,41,0.00,,,0.00,VWS V14.00,2013-07-19 19:28:00,
2013-07-19 15:29:00,92.5,64.7,29.75,SSW,208,10.1,10.1,40,0.00,,,0.00,VWS V14.00,2013-07-19 19:29:00,
2013-07-19 15:30:00,92.3,64.5,29.78,South,185,8.3,8.3,40,0.00,,,0.00,VWS V14.00,2013-07-19 19:30:00,
2013-07-19 15:31:00,92.3,64.5,29.78,SSW,205,10.1,10.1,40,0.00,,,0.00,VWS V14.00,2013-07-19 19:31:00,
2013-07-19 15:32:00,92.5,64.7,29.75,SSW,208,10.1,10.1,40,0.00,,,0.00,VWS V14.00,2013-07-19 19:32:00,
2013-07-19 15:33:00,92.5,64.7,29.75,SSW,208,10.1,10.1,40,0.00,,,0.00,VWS V14.00,2013-07-19 19:33:00,
2013-07-19 15:34:00,92.5,64.7,29.75,West,266,8.1,12.3,40,0.00,,,0.00,VWS V14.00,2013-07-19 19:34:00,
2013-07-19 15:43:00,91.9,64.2,29.75,SSW,200,13.2,13.2,40,0.00,,,0.00,VWS V14.00,2013-07-19 19:43:00,
2013-07-19 15:48:00,90.9,63.9,29.75,West,271,12.8,17.0,41,0.00,,,0.00,VWS V14.00,2013-07-19 19:48:00,
2013-07-19 15:53:00,89.8,65.0,29.75,SW,220,9.6,19.7,44,0.00,,,0.00,VWS V14.00,2013-07-19 19:53:00,
2013-07-19 15:58:00,88.2,64.2,29.78,SW,222,8.3,17.4,45,0.00,,,0.00,VWS V14.00,2013-07-19 19:58:00,
2013-07-19 16:04:00,84.6,63.3,29.78,SW,225,10.5,17.0,49,0.00,,,0.00,VWS V14.00,2013-07-19 20:04:00,
2013-07-19 16:09:00,82.9,65.1,29.78,SSW,203,5.4,8.3,55,0.00,,,0.00,VWS V14.00,2013-07-19 20:09:00,
2013-07-19 16:15:00,83.7,67.3,29.78,SSW,205,6.3,6.3,58,0.00,,,0.00,VWS V14.00,2013-07-19 20:15:00,
2013-07-19 16:20:00,85.3,68.3,29.78,SW,221,4.0,4.0,57,0.00,,,0.00,VWS V14.00,2013-07-19 20:20:00,
2013-07-19 16:25:00,86.5,67.4,29.78,SSW,210,3.6,3.6,53,0.00,,,0.00,VWS V14.00,2013-07-19 20:25:00,
2013-07-19 16:30:00,87.6,68.9,29.78,SSW,193,5.8,5.8,54,0.00,,,0.00,VWS V14.00,2013-07-19 20:30:00,
2013-07-19 16:35:00,88.5,69.2,29.78,SSW,203,0.0,0.0,53,0.00,,,0.00,VWS V14.00,2013-07-19 20:35:00,
2013-07-19 16:40:00,89.1,68.0,29.78,SSW,198,3.6,3.6,50,0.00,,,0.00,VWS V14.00,2013-07-19 20:40:00,
2013-07-19 16:46:00,89.4,67.8,29.78,West,270,3.6,3.6,49,0.00,,,0.00,VWS V14.00,2013-07-19 20:46:00,
2013-07-19 16:52:00,90.0,68.8,29.78,SSW,202,5.4,5.4,50,0.00,,,0.00,VWS V14.00,2013-07-19 20:52:00,
2013-07-19 16:58:00,90.1,68.4,29.75,SW,230,4.0,8.7,49,0.00,,,0.00,VWS V14.00,2013-07-19 20:58:00,
2013-07-19 17:04:00,90.5,68.2,29.75,WSW,241,7.6,8.3,48,0.00,,,0.00,VWS V14.00,2013-07-19 21:04:00,
2013-07-19 17:09:00,90.7,67.1,29.75,SSW,208,6.3,7.6,46,0.00,,,0.00,VWS V14.00,2013-07-19 21:09:00,
2013-07-19 17:14:00,90.9,66.6,29.78,SW,214,4.9,8.7,45,0.00,,,0.00,VWS V14.00,2013-07-19 21:14:00,
2013-07-19 17:20:00,91.0,66.8,29.78,SW,216,7.6,7.6,45,0.00,,,0.00,VWS V14.00,2013-07-19 21:20:00,
2013-07-19 17:25:00,91.0,66.8,29.78,SW,234,4.9,5.8,45,0.00,,,0.00,VWS V14.00,2013-07-19 21:25:00,
2013-07-19 17:32:00,91.2,66.3,29.78,WSW,245,4.0,10.5,44,0.00,,,0.00,VWS V14.00,2013-07-19 21:32:00,
2013-07-19 17:37:00,91.2,66.3,29.78,SW,224,8.7,10.5,44,0.00,,,0.00,VWS V14.00,2013-07-19 21:37:00,
2013-07-19 17:42:00,91.6,66.6,29.78,SW,231,5.8,7.6,44,0.00,,,0.00,VWS V14.00,2013-07-19 21:42:00,
2013-07-19 17:48:00,91.9,65.6,29.75,SSW,207,10.5,10.5,42,0.00,,,0.00,VWS V14.00,2013-07-19 21:48:00,
2013-07-19 17:53:00,92.3,65.9,29.75,SW,221,6.3,6.3,42,0.00,,,0.00,VWS V14.00,2013-07-19 21:53:00,
2013-07-19 17:59:00,92.8,65.7,29.75,WNW,289,10.1,10.1,41,0.00,,,0.00,VWS V14.00,2013-07-19 21:59:00,
2013-07-19 18:05:00,93.4,65.5,29.75,West,276,2.7,8.7,40,0.00,,,0.00,VWS V14.00,2013-07-19 22:05:00,
2013-07-19 18:10:00,93.7,65.1,29.75,SW,235,10.5,10.5,39,0.00,,,0.00,VWS V14.00,2013-07-19 22:10:00,
2013-07-19 18:16:00,93.7,64.3,29.75,West,263,9.2,12.3,38,0.00,,,0.00,VWS V14.00,2013-07-19 22:16:00,
2013-07-19 18:21:00,93.7,64.3,29.75,SW,216,11.0,11.0,38,0.00,,,0.00,VWS V14.00,2013-07-19 22:21:00,
2013-07-19 18:27:00,93.6,64.9,29.75,SW,217,7.2,10.1,39,0.00,,,0.00,VWS V14.00,2013-07-19 22:27:00,
2013-07-19 18:32:00,93.6,64.9,29.75,SW,233,10.1,10.1,39,0.00,,,0.00,VWS V14.00,2013-07-19 22:32:00,
2013-07-19 18:37:00,93.6,65.6,29.75,SSW,202,6.3,6.3,40,0.00,,,0.00,VWS V14.00,2013-07-19 22:37:00,
2013-07-19 18:43:00,93.6,65.6,29.75,WSW,244,5.4,6.7,40,0.00,,,0.00,VWS V14.00,2013-07-19 22:43:00,
2013-07-19 18:48:00,93.4,65.5,29.75,SSW,208,3.6,3.6,40,0.00,,,0.00,VWS V14.00,2013-07-19 22:48:00,
2013-07-19 18:54:00,93.2,66.0,29.75,SW,232,5.4,5.4,41,0.00,,,0.00,VWS V14.00,2013-07-19 22:54:00,
2013-07-19 18:59:00,92.8,66.4,29.75,SW,223,5.8,5.8,42,0.00,,,0.00,VWS V14.00,2013-07-19 22:59:00,
2013-07-19 19:05:00,91.9,66.3,29.75,SSW,211,4.0,5.8,43,0.00,,,0.00,VWS V14.00,2013-07-19 23:05:00,
2013-07-19 19:11:00,91.9,66.3,29.75,West,277,4.0,6.3,43,0.00,,,0.00,VWS V14.00,2013-07-19 23:11:00,
2013-07-19 19:16:00,91.8,66.1,29.75,WSW,245,2.7,5.4,43,0.00,,,0.00,VWS V14.00,2013-07-19 23:16:00,
2013-07-19 19:22:00,91.8,66.8,29.75,SW,236,4.0,8.1,44,0.00,,,0.00,VWS V14.00,2013-07-19 23:22:00,
2013-07-19 19:27:00,91.8,66.8,29.75,SSW,205,3.6,4.9,44,0.00,,,0.00,VWS V14.00,2013-07-19 23:27:00,
2013-07-19 19:32:00,91.8,66.8,29.75,WSW,241,4.0,8.3,44,0.00,,,0.00,VWS V14.00,2013-07-19 23:32:00,
2013-07-19 19:37:00,91.8,66.8,29.75,WNW,287,5.8,5.8,44,0.00,,,0.00,VWS V14.00,2013-07-19 23:37:00,
2013-07-19 19:42:00,90.9,66.6,29.75,SW,225,4.0,4.9,45,0.00,,,0.00,VWS V14.00,2013-07-19 23:42:00,
2013-07-19 19:47:00,90.1,66.6,29.75,WSW,249,6.3,6.3,46,0.00,,,0.00,VWS V14.00,2013-07-19 23:47:00,
2013-07-19 19:52:00,90.0,67.0,29.75,WNW,283,4.9,6.3,47,0.00,,,0.00,VWS V14.00,2013-07-19 23:52:00,
2013-07-19 19:58:00,89.1,67.4,29.75,SW,231,5.4,5.4,49,0.00,,,0.00,VWS V14.00,2013-07-19 23:58:00,
2013-07-19 20:03:00,89.1,67.4,29.75,SW,232,8.7,8.7,49,0.00,,,0.00,VWS V14.00,2013-07-20 00:03:00,
2013-07-19 20:09:00,88.5,67.5,29.75,WSW,257,5.8,5.8,50,0.00,,,0.00,VWS V14.00,2013-07-20 00:09:00,
2013-07-19 20:14:00,88.2,67.8,29.75,SW,223,4.0,4.0,51,0.00,,,0.00,VWS V14.00,2013-07-20 00:14:00,
2013-07-19 20:19:00,88.0,67.6,29.75,SSW,199,4.9,4.9,51,0.00,,,0.00,VWS V14.00,2013-07-20 00:19:00,
2013-07-19 20:25:00,87.6,68.4,29.75,WSW,249,4.0,4.0,53,0.00,,,0.00,VWS V14.00,2013-07-20 00:25:00,
2013-07-19 20:30:00,87.3,68.1,29.75,WSW,247,4.9,4.9,53,0.00,,,0.00,VWS V14.00,2013-07-20 00:30:00,
2013-07-19 20:36:00,87.1,68.4,29.75,South,188,5.4,5.4,54,0.00,,,0.00,VWS V14.00,2013-07-20 00:36:00,
2013-07-19 20:41:00,86.7,68.6,29.75,WSW,245,4.0,4.0,55,0.00,,,0.00,VWS V14.00,2013-07-20 00:41:00,
2013-07-19 20:47:00,86.4,68.3,29.75,WSW,239,6.3,6.3,55,0.00,,,0.00,VWS V14.00,2013-07-20 00:47:00,
2013-07-19 20:53:00,86.2,68.7,29.75,WSW,246,2.7,5.8,56,0.00,,,0.00,VWS V14.00,2013-07-20 00:53:00,
2013-07-19 20:58:00,86.0,68.5,29.75,West,273,3.6,3.6,56,0.00,,,0.00,VWS V14.00,2013-07-20 00:58:00,
2013-07-19 21:04:00,85.5,69.0,29.75,WSW,258,3.6,3.6,58,0.00,,,0.00,VWS V14.00,2013-07-20 01:04:00,
2013-07-19 21:09:00,85.5,69.0,29.75,SW,232,3.1,3.1,58,0.00,,,0.00,VWS V14.00,2013-07-20 01:09:00,
2013-07-19 21:16:00,84.9,69.0,29.75,SSW,213,2.7,3.6,59,0.00,,,0.00,VWS V14.00,2013-07-20 01:16:00,
2013-07-19 21:21:00,84.9,69.0,29.75,WSW,253,5.4,5.4,59,0.00,,,0.00,VWS V14.00,2013-07-20 01:21:00,
2013-07-19 21:26:00,84.9,69.0,29.75,SW,220,4.9,4.9,59,0.00,,,0.00,VWS V14.00,2013-07-20 01:26:00,
2013-07-19 21:31:00,84.4,69.0,29.75,SW,221,0.0,5.4,60,0.00,,,0.00,VWS V14.00,2013-07-20 01:31:00,
2013-07-19 21:36:00,84.4,69.0,29.75,West,276,4.9,4.9,60,0.00,,,0.00,VWS V14.00,2013-07-20 01:36:00,
2013-07-19 21:41:00,83.8,69.4,29.75,WNW,291,2.7,2.7,62,0.00,,,0.00,VWS V14.00,2013-07-20 01:41:00,
2013-07-19 21:46:00,83.8,69.4,29.75,SSW,204,3.1,3.6,62,0.00,,,0.00,VWS V14.00,2013-07-20 01:46:00,
2013-07-19 21:51:00,83.8,69.4,29.75,SW,230,2.7,5.4,62,0.00,,,0.00,VWS V14.00,2013-07-20 01:51:00,
2013-07-19 21:58:00,83.3,69.4,29.75,SSW,199,2.7,2.7,63,0.00,,,0.00,VWS V14.00,2013-07-20 01:58:00,
2013-07-19 22:03:00,83.3,69.4,29.75,WSW,238,2.7,3.1,63,0.00,,,0.00,VWS V14.00,2013-07-20 02:03:00,
2013-07-19 22:08:00,82.9,69.5,29.75,SW,235,2.2,2.2,64,0.00,,,0.00,VWS V14.00,2013-07-20 02:08:00,
2013-07-19 22:14:00,82.8,69.3,29.75,WSW,251,2.2,2.2,64,0.00,,,0.00,VWS V14.00,2013-07-20 02:14:00,
2013-07-19 22:19:00,82.8,69.3,29.75,WSW,257,2.7,3.1,64,0.00,,,0.00,VWS V14.00,2013-07-20 02:19:00,
2013-07-19 22:24:00,82.6,69.6,29.75,WSW,249,2.2,3.1,65,0.00,,,0.00,VWS V14.00,2013-07-20 02:24:00,
2013-07-19 22:29:00,82.4,69.5,29.75,WSW,251,3.6,3.6,65,0.00,,,0.00,VWS V14.00,2013-07-20 02:29:00,
2013-07-19 22:35:00,82.4,69.5,29.75,SW,214,5.8,5.8,65,0.00,,,0.00,VWS V14.00,2013-07-20 02:35:00,
2013-07-19 22:40:00,82.2,69.7,29.75,SW,233,3.6,3.6,66,0.00,,,0.00,VWS V14.00,2013-07-20 02:40:00,
2013-07-19 22:46:00,82.2,69.7,29.75,SW,217,0.0,2.7,66,0.00,,,0.00,VWS V14.00,2013-07-20 02:46:00,
2013-07-19 22:51:00,81.9,69.4,29.75,WSW,247,3.6,3.6,66,0.00,,,0.00,VWS V14.00,2013-07-20 02:51:00,
2013-07-19 22:56:00,81.9,69.4,29.75,SW,221,4.0,4.0,66,0.00,,,0.00,VWS V14.00,2013-07-20 02:56:00,
2013-07-19 23:01:00,81.9,69.4,29.75,SW,222,3.1,4.0,66,0.00,,,0.00,VWS V14.00,2013-07-20 03:01:00,
2013-07-19 23:07:00,81.9,69.4,29.75,SW,218,3.1,3.1,66,0.00,,,0.00,VWS V14.00,2013-07-20 03:07:00,
2013-07-19 23:12:00,81.7,69.7,29.75,SW,229,2.7,2.7,67,0.00,,,0.00,VWS V14.00,2013-07-20 03:12:00,
2013-07-19 23:18:00,81.5,69.5,29.75,SW,226,0.0,0.0,67,0.00,,,0.00,VWS V14.00,2013-07-20 03:18:00,
2013-07-19 23:24:00,81.5,69.5,29.75,WSW,256,0.0,0.0,67,0.00,,,0.00,VWS V14.00,2013-07-20 03:24:00,
2013-07-19 23:29:00,81.5,69.5,29.75,WSW,240,3.6,3.6,67,0.00,,,0.00,VWS V14.00,2013-07-20 03:29:00,
2013-07-19 23:35:00,81.3,69.3,29.78,SW,225,3.1,4.0,67,0.00,,,0.00,VWS V14.00,2013-07-20 03:35:00,
2013-07-19 23:40:00,81.1,69.6,29.78,WSW,247,4.0,4.0,68,0.00,,,0.00,VWS V14.00,2013-07-20 03:40:00,
2013-07-19 23:45:00,81.1,69.6,29.78,NW,314,5.4,5.4,68,0.00,,,0.00,VWS V14.00,2013-07-20 03:45:00,
2013-07-19 23:50:00,81.1,69.6,29.78,SW,224,2.7,3.1,68,0.00,,,0.00,VWS V14.00,2013-07-20 03:50:00,
2013-07-19 23:57:00,81.1,69.6,29.78,WSW,239,2.2,2.2,68,0.00,,,0.00,VWS V14.00,2013-07-20 03:57:00,